Wetterdaten: Donnerstag, 16.07.2015
Datum Zeit Temp. Aussen +5cm Feuchte Auss BlattFeu 1 Luftdruck Regen Sonnenschein Regendauer Solar Windben
16.07.2015 00:00 20,2 C 18,3 C 90 % 0 lf 1017,9 hPa 0,0 l/m 0 min 0 min 0 W/m 0,0 km/h (0 Bft)
16.07.2015 00:02 20,2 C 18,3 C 90 % 0 lf 1017,9 hPa 0,0 l/m 0 min 0 min 0 W/m 0,0 km/h (0 Bft)
16.07.2015 00:05 20,2 C 18,3 C 90 % 1 lf 1017,9 hPa 0,0 l/m 0 min 0 min 0 W/m 0,0 km/h (0 Bft)
16.07.2015 00:08 20,2 C 18,3 C 91 % 1 lf 1017,9 hPa 0,0 l/m 0 min 2 min 0 W/m 0,0 km/h (0 Bft)
16.07.2015 00:10 20,2 C 18,3 C 91 % 1 lf 1017,9 hPa 0,0 l/m 0 min 0 min 0 W/m 0,0 km/h (0 Bft)
16.07.2015 00:12 20,2 C 18,3 C 91 % 1 lf 1018,0 hPa 0,0 l/m 0 min 0 min 0 W/m 0,0 km/h (0 Bft)
16.07.2015 00:14 20,2 C 18,3 C 91 % 1 lf 1018,0 hPa 0,0 l/m 0 min 0 min 0 W/m 10,5 km/h (2 Bft)
16.07.2015 00:16 20,2 C 18,3 C 91 % 1 lf 1018,0 hPa 0,0 l/m 0 min 0 min 0 W/m 10,5 km/h (2 Bft)
16.07.2015 00:18 20,2 C 18,3 C 91 % 1 lf 1018,0 hPa 0,0 l/m 0 min 0 min 0 W/m 8,4 km/h (2 Bft)
16.07.2015 00:20 20,2 C 18,3 C 91 % 1 lf 1018,0 hPa 0,0 l/m 0 min 0 min 0 W/m 8,4 km/h (2 Bft)
16.07.2015 00:22 20,2 C 18,3 C 91 % 0 lf 1018,1 hPa 0,0 l/m 0 min 0 min 0 W/m 10,5 km/h (2 Bft)
16.07.2015 00:24 20,2 C 18,3 C 91 % 0 lf 1018,0 hPa 0,0 l/m 0 min 0 min 0 W/m 14,6 km/h (3 Bft)
16.07.2015 00:26 20,1 C 18,3 C 91 % 0 lf 1018,1 hPa 0,0 l/m 0 min 0 min 0 W/m 10,5 km/h (2 Bft)
16.07.2015 00:28 20,1 C 18,3 C 91 % 0 lf 1018,0 hPa 0,0 l/m 0 min 0 min 0 W/m 10,5 km/h (2 Bft)
16.07.2015 00:30 20,1 C 18,3 C 91 % 0 lf 1018,0 hPa 0,0 l/m 0 min 0 min 0 W/m 14,6 km/h (3 Bft)
16.07.2015 00:32 20,1 C 18,3 C 91 % 0 lf 1018,0 hPa 0,0 l/m 0 min 0 min 0 W/m 12,6 km/h (3 Bft)
16.07.2015 00:34 20,0 C 18,3 C 91 % 0 lf 1018,1 hPa 0,0 l/m 0 min 0 min 0 W/m 16,7 km/h (3 Bft)
16.07.2015 00:36 20,0 C 18,3 C 91 % 0 lf 1018,1 hPa 0,0 l/m 0 min 0 min 0 W/m 10,5 km/h (2 Bft)
16.07.2015 00:38 19,9 C 18,3 C 91 % 0 lf 1018,1 hPa 0,0 l/m 0 min 0 min 0 W/m 12,6 km/h (3 Bft)
16.07.2015 00:40 19,9 C 18,3 C 91 % 0 lf 1018,1 hPa 0,0 l/m 0 min 0 min 0 W/m 14,6 km/h (3 Bft)
16.07.2015 00:42 19,9 C 18,3 C 91 % 0 lf 1018,1 hPa 0,0 l/m 0 min 0 min 0 W/m 10,5 km/h (2 Bft)
16.07.2015 00:44 19,9 C 18,3 C 91 % 1 lf 1018,0 hPa 0,0 l/m 0 min 0 min 0 W/m 8,4 km/h (2 Bft)
16.07.2015 00:46 19,8 C 18,3 C 91 % 1 lf 1018,0 hPa 0,0 l/m 0 min 0 min 0 W/m 6,3 km/h (2 Bft)
16.07.2015 00:48 19,8 C 18,3 C 91 % 1 lf 1018,0 hPa 0,0 l/m 0 min 0 min 0 W/m 12,6 km/h (3 Bft)
16.07.2015 00:50 19,8 C 17,8 C 92 % 1 lf 1018,1 hPa 0,0 l/m 0 min 0 min 0 W/m 10,5 km/h (2 Bft)
16.07.2015 00:52 19,8 C 17,8 C 92 % 1 lf 1018,1 hPa 0,0 l/m 0 min 0 min 0 W/m 6,3 km/h (2 Bft)
16.07.2015 00:54 19,8 C 17,8 C 92 % 1 lf 1018,1 hPa 0,0 l/m 0 min 0 min 0 W/m 6,3 km/h (2 Bft)
16.07.2015 00:56 19,7 C 17,8 C 92 % 1 lf 1018,1 hPa 0,0 l/m 0 min 0 min 0 W/m 6,3 km/h (2 Bft)
16.07.2015 00:58 19,7 C 17,8 C 92 % 1 lf 1018,2 hPa 0,0 l/m 0 min 0 min 0 W/m 8,4 km/h (2 Bft)
16.07.2015 01:00 19,7 C 17,8 C 92 % 1 lf 1018,2 hPa 0,0 l/m 0 min 0 min 0 W/m 10,5 km/h (2 Bft)
16.07.2015 01:02 19,7 C 17,8 C 92 % 1 lf 1018,1 hPa 0,0 l/m 0 min 0 min 0 W/m 8,4 km/h (2 Bft)
16.07.2015 01:04 19,7 C 17,8 C 92 % 1 lf 1018,1 hPa 0,0 l/m 0 min 0 min 0 W/m 6,3 km/h (2 Bft)
16.07.2015 01:06 19,6 C 17,8 C 92 % 1 lf 1018,0 hPa 0,0 l/m 0 min 0 min 0 W/m 10,5 km/h (2 Bft)
16.07.2015 01:08 19,6 C 17,8 C 92 % 1 lf 1018,0 hPa 0,0 l/m 0 min 0 min 0 W/m 6,3 km/h (2 Bft)
16.07.2015 01:10 19,6 C 17,8 C 92 % 1 lf 1018,1 hPa 0,0 l/m 0 min 0 min 0 W/m 8,4 km/h (2 Bft)
16.07.2015 01:12 19,6 C 17,8 C 92 % 1 lf 1018,1 hPa 0,0 l/m 0 min 0 min 0 W/m 8,4 km/h (2 Bft)
16.07.2015 01:14 19,5 C 17,8 C 92 % 1 lf 1018,2 hPa 0,0 l/m 0 min 0 min 0 W/m 6,3 km/h (2 Bft)
16.07.2015 01:16 19,5 C 17,8 C 92 % 1 lf 1018,2 hPa 0,0 l/m 0 min 0 min 0 W/m 8,4 km/h (2 Bft)
16.07.2015 01:18 19,5 C 17,8 C 92 % 1 lf 1018,2 hPa 0,0 l/m 0 min 0 min 0 W/m 6,3 km/h (2 Bft)
16.07.2015 01:20 19,4 C 17,8 C 92 % 1 lf 1018,3 hPa 0,0 l/m 0 min 0 min 0 W/m 12,6 km/h (3 Bft)
16.07.2015 01:22 19,4 C 17,8 C 92 % 1 lf 1018,2 hPa 0,0 l/m 0 min 0 min 0 W/m 6,3 km/h (2 Bft)
16.07.2015 01:24 19,4 C 17,8 C 92 % 1 lf 1018,2 hPa 0,0 l/m 0 min 0 min 0 W/m 6,3 km/h (2 Bft)
16.07.2015 01:26 19,4 C 17,2 C 92 % 1 lf 1018,1 hPa 0,0 l/m 0 min 0 min 0 W/m 6,3 km/h (2 Bft)
16.07.2015 01:28 19,4 C 17,2 C 92 % 1 lf 1018,2 hPa 0,0 l/m 0 min 0 min 0 W/m 4,2 km/h (1 Bft)
16.07.2015 01:30 19,3 C 17,2 C 92 % 1 lf 1018,2 hPa 0,0 l/m 0 min 0 min 0 W/m 6,3 km/h (2 Bft)
16.07.2015 01:32 19,3 C 17,2 C 92 % 1 lf 1018,2 hPa 0,0 l/m 0 min 0 min 0 W/m 6,3 km/h (2 Bft)
16.07.2015 01:34 19,3 C 17,2 C 92 % 1 lf 1018,2 hPa 0,0 l/m 0 min 0 min 0 W/m 4,2 km/h (1 Bft)
16.07.2015 01:36 19,2 C 16,7 C 92 % 1 lf 1018,2 hPa 0,0 l/m 0 min 0 min 0 W/m 4,2 km/h (1 Bft)
16.07.2015 01:38 19,2 C 16,7 C 92 % 2 lf 1018,2 hPa 0,0 l/m 0 min 0 min 0 W/m 2,1 km/h (1 Bft)
16.07.2015 01:40 19,2 C 16,7 C 92 % 2 lf 1018,2 hPa 0,0 l/m 0 min 0 min 0 W/m 2,1 km/h (1 Bft)
16.07.2015 01:42 19,2 C 16,7 C 92 % 2 lf 1018,2 hPa 0,0 l/m 0 min 0 min 0 W/m 2,1 km/h (1 Bft)
16.07.2015 01:44 19,1 C 16,7 C 92 % 2 lf 1018,2 hPa 0,0 l/m 0 min 0 min 0 W/m 4,2 km/h (1 Bft)
16.07.2015 01:46 19,1 C 16,7 C 92 % 2 lf 1018,3 hPa 0,0 l/m 0 min 0 min 0 W/m 2,1 km/h (1 Bft)
16.07.2015 01:48 19,1 C 16,7 C 92 % 3 lf 1018,3 hPa 0,0 l/m 0 min 0 min 0 W/m 2,1 km/h (1 Bft)
16.07.2015 01:50 19,0 C 16,1 C 92 % 3 lf 1018,3 hPa 0,0 l/m 0 min 0 min 0 W/m 2,1 km/h (1 Bft)
16.07.2015 01:52 18,9 C 16,1 C 92 % 3 lf 1018,2 hPa 0,0 l/m 0 min 0 min 0 W/m 2,1 km/h (1 Bft)
16.07.2015 01:54 18,9 C 16,1 C 92 % 3 lf 1018,2 hPa 0,0 l/m 0 min 0 min 0 W/m 2,1 km/h (1 Bft)
16.07.2015 01:56 18,9 C 16,1 C 92 % 3 lf 1018,2 hPa 0,0 l/m 0 min 0 min 0 W/m 2,1 km/h (1 Bft)
16.07.2015 01:58 18,8 C 16,1 C 92 % 4 lf 1018,2 hPa 0,0 l/m 0 min 0 min 0 W/m 4,2 km/h (1 Bft)
16.07.2015 02:00 18,8 C 16,1 C 92 % 4 lf 1018,2 hPa 0,0 l/m 0 min 0 min 0 W/m 4,2 km/h (1 Bft)
16.07.2015 02:02 18,8 C 16,1 C 91 % 4 lf 1018,2 hPa 0,0 l/m 0 min 0 min 0 W/m 2,1 km/h (1 Bft)
16.07.2015 02:04 18,7 C 16,1 C 91 % 5 lf 1018,2 hPa 0,0 l/m 0 min 0 min 0 W/m 2,1 km/h (1 Bft)
16.07.2015 02:06 18,7 C 16,1 C 91 % 6 lf 1018,2 hPa 0,0 l/m 0 min 0 min 0 W/m 2,1 km/h (1 Bft)
16.07.2015 02:08 18,7 C 16,1 C 91 % 7 lf 1018,1 hPa 0,0 l/m 0 min 0 min 0 W/m 0,0 km/h (0 Bft)
16.07.2015 02:10 18,6 C 15,6 C 91 % 8 lf 1018,1 hPa 0,0 l/m 0 min 0 min 0 W/m 4,2 km/h (1 Bft)
16.07.2015 02:12 18,6 C 15,6 C 91 % 9 lf 1018,2 hPa 0,0 l/m 0 min 0 min 0 W/m 4,2 km/h (1 Bft)
16.07.2015 02:14 18,5 C 15,6 C 91 % 9 lf 1018,1 hPa 0,0 l/m 0 min 0 min 0 W/m 4,2 km/h (1 Bft)
16.07.2015 02:16 18,5 C 15,6 C 91 % 10 lf 1018,1 hPa 0,0 l/m 0 min 0 min 0 W/m 0,0 km/h (0 Bft)
16.07.2015 02:18 18,4 C 15,6 C 91 % 10 lf 1018,1 hPa 0,0 l/m 0 min 0 min 0 W/m 0,0 km/h (0 Bft)
16.07.2015 02:20 18,4 C 15,6 C 91 % 11 lf 1018,1 hPa 0,0 l/m 0 min 0 min 0 W/m 0,0 km/h (0 Bft)
16.07.2015 02:22 18,3 C 15,6 C 91 % 12 lf 1018,1 hPa 0,0 l/m 0 min 0 min 0 W/m 0,0 km/h (0 Bft)
16.07.2015 02:24 18,3 C 15,6 C 91 % 12 lf 1018,2 hPa 0,0 l/m 0 min 0 min 0 W/m 0,0 km/h (0 Bft)
16.07.2015 02:26 18,3 C 15,6 C 91 % 13 lf 1018,2 hPa 0,0 l/m 0 min 0 min 0 W/m 0,0 km/h (0 Bft)
16.07.2015 02:28 18,2 C 15,6 C 91 % 13 lf 1018,3 hPa 0,0 l/m 0 min 0 min 0 W/m 0,0 km/h (0 Bft)
16.07.2015 02:30 18,2 C 15,6 C 91 % 14 lf 1018,3 hPa 0,0 l/m 0 min 0 min 0 W/m 0,0 km/h (0 Bft)
16.07.2015 02:32 18,1 C 15,6 C 91 % 14 lf 1018,2 hPa 0,0 l/m 0 min 0 min 0 W/m 0,0 km/h (0 Bft)
16.07.2015 02:34 18,1 C 15,6 C 91 % 15 lf 1018,2 hPa 0,0 l/m 0 min 0 min 0 W/m 0,0 km/h (0 Bft)
16.07.2015 02:36 18,1 C 15,6 C 92 % 15 lf 1018,2 hPa 0,0 l/m 0 min 0 min 0 W/m 0,0 km/h (0 Bft)
16.07.2015 02:38 18,0 C 15,6 C 92 % 15 lf 1018,2 hPa 0,0 l/m 0 min 0 min 0 W/m 0,0 km/h (0 Bft)
16.07.2015 02:40 18,0 C 15,0 C 92 % 15 lf 1018,2 hPa 0,0 l/m 0 min 0 min 0 W/m 0,0 km/h (0 Bft)
16.07.2015 02:42 17,9 C 15,0 C 91 % 15 lf 1018,3 hPa 0,0 l/m 0 min 0 min 0 W/m 0,0 km/h (0 Bft)
16.07.2015 02:44 17,9 C 15,0 C 92 % 15 lf 1018,3 hPa 0,0 l/m 0 min 0 min 0 W/m 0,0 km/h (0 Bft)
16.07.2015 02:46 17,9 C 15,0 C 92 % 15 lf 1018,2 hPa 0,0 l/m 0 min 0 min 0 W/m 0,0 km/h (0 Bft)
16.07.2015 02:48 17,8 C 15,0 C 92 % 15 lf 1018,2 hPa 0,0 l/m 0 min 0 min 0 W/m 0,0 km/h (0 Bft)
16.07.2015 02:50 17,8 C 15,0 C 92 % 15 lf 1018,2 hPa 0,0 l/m 0 min 0 min 0 W/m 0,0 km/h (0 Bft)
16.07.2015 02:52 17,8 C 15,0 C 92 % 15 lf 1018,2 hPa 0,0 l/m 0 min 0 min 0 W/m 0,0 km/h (0 Bft)
16.07.2015 02:54 17,7 C 15,0 C 92 % 15 lf 1018,2 hPa 0,0 l/m 0 min 0 min 0 W/m 0,0 km/h (0 Bft)
16.07.2015 02:56 17,7 C 15,0 C 92 % 15 lf 1018,2 hPa 0,0 l/m 0 min 0 min 0 W/m 0,0 km/h (0 Bft)
16.07.2015 02:58 17,7 C 15,0 C 92 % 15 lf 1018,1 hPa 0,0 l/m 0 min 0 min 0 W/m 0,0 km/h (0 Bft)
16.07.2015 03:00 17,6 C 15,0 C 92 % 15 lf 1018,0 hPa 0,0 l/m 0 min 0 min 0 W/m 0,0 km/h (0 Bft)
16.07.2015 03:02 17,6 C 15,0 C 92 % 15 lf 1018,1 hPa 0,0 l/m 0 min 0 min 0 W/m 0,0 km/h (0 Bft)
16.07.2015 03:04 17,6 C 15,0 C 92 % 15 lf 1018,0 hPa 0,0 l/m 0 min 0 min 0 W/m 0,0 km/h (0 Bft)
16.07.2015 03:06 17,6 C 15,0 C 92 % 15 lf 1018,0 hPa 0,0 l/m 0 min 0 min 0 W/m 0,0 km/h (0 Bft)
16.07.2015 03:08 17,6 C 15,0 C 92 % 15 lf 1018,0 hPa 0,0 l/m 0 min 0 min 0 W/m 0,0 km/h (0 Bft)
16.07.2015 03:10 17,5 C 15,0 C 92 % 15 lf 1018,0 hPa 0,0 l/m 0 min 0 min 0 W/m 0,0 km/h (0 Bft)
16.07.2015 03:12 17,5 C 15,0 C 92 % 15 lf 1018,0 hPa 0,0 l/m 0 min 0 min 0 W/m 0,0 km/h (0 Bft)
16.07.2015 03:14 17,4 C 15,0 C 92 % 15 lf 1018,0 hPa 0,0 l/m 0 min 0 min 0 W/m 0,0 km/h (0 Bft)
16.07.2015 03:16 17,4 C 15,0 C 92 % 15 lf 1018,1 hPa 0,0 l/m 0 min 0 min 0 W/m 0,0 km/h (0 Bft)
16.07.2015 03:18 17,4 C 15,0 C 92 % 15 lf 1018,0 hPa 0,0 l/m 0 min 0 min 0 W/m 0,0 km/h (0 Bft)
16.07.2015 03:20 17,4 C 15,0 C 92 % 15 lf 1018,1 hPa 0,0 l/m 0 min 0 min 0 W/m 0,0 km/h (0 Bft)
16.07.2015 03:22 17,3 C 15,0 C 92 % 15 lf 1018,1 hPa 0,0 l/m 0 min 0 min 0 W/m 0,0 km/h (0 Bft)
16.07.2015 03:24 17,3 C 15,0 C 92 % 15 lf 1018,2 hPa 0,0 l/m 0 min 0 min 0 W/m 0,0 km/h (0 Bft)
16.07.2015 03:26 17,3 C 15,0 C 92 % 15 lf 1018,2 hPa 0,0 l/m 0 min 0 min 0 W/m 0,0 km/h (0 Bft)
16.07.2015 03:28 17,2 C 15,0 C 92 % 15 lf 1018,3 hPa 0,0 l/m 0 min 0 min 0 W/m 0,0 km/h (0 Bft)
16.07.2015 03:30 17,2 C 15,0 C 92 % 15 lf 1018,3 hPa 0,0 l/m 0 min 0 min 0 W/m 0,0 km/h (0 Bft)
16.07.2015 03:32 17,2 C 15,0 C 92 % 15 lf 1018,3 hPa 0,0 l/m 0 min 0 min 0 W/m 0,0 km/h (0 Bft)
16.07.2015 03:34 17,1 C 15,0 C 92 % 15 lf 1018,3 hPa 0,0 l/m 0 min 0 min 0 W/m 0,0 km/h (0 Bft)
16.07.2015 03:36 17,1 C 15,0 C 92 % 15 lf 1018,3 hPa 0,0 l/m 0 min 0 min 0 W/m 0,0 km/h (0 Bft)
16.07.2015 03:38 17,1 C 15,0 C 93 % 15 lf 1018,3 hPa 0,0 l/m 0 min 0 min 0 W/m 6,3 km/h (2 Bft)
16.07.2015 03:40 17,1 C 15,0 C 93 % 15 lf 1018,3 hPa 0,0 l/m 0 min 0 min 0 W/m 6,3 km/h (2 Bft)
16.07.2015 03:42 17,1 C 15,0 C 93 % 15 lf 1018,4 hPa 0,0 l/m 0 min 0 min 0 W/m 6,3 km/h (2 Bft)
16.07.2015 03:44 17,1 C 15,0 C 93 % 15 lf 1018,3 hPa 0,0 l/m 0 min 0 min 0 W/m 6,3 km/h (2 Bft)
16.07.2015 03:46 17,0 C 15,0 C 93 % 15 lf 1018,2 hPa 0,0 l/m 0 min 0 min 0 W/m 4,2 km/h (1 Bft)
16.07.2015 03:48 17,0 C 15,0 C 93 % 15 lf 1018,2 hPa 0,0 l/m 0 min 0 min 0 W/m 4,2 km/h (1 Bft)
16.07.2015 03:50 17,0 C 15,0 C 93 % 15 lf 1018,2 hPa 0,0 l/m 0 min 0 min 0 W/m 2,1 km/h (1 Bft)
16.07.2015 03:52 16,9 C 15,0 C 93 % 15 lf 1018,2 hPa 0,0 l/m 0 min 0 min 0 W/m 2,1 km/h (1 Bft)
16.07.2015 03:54 16,9 C 15,0 C 93 % 15 lf 1018,3 hPa 0,0 l/m 0 min 0 min 0 W/m 2,1 km/h (1 Bft)
16.07.2015 03:56 16,9 C 15,6 C 93 % 15 lf 1018,3 hPa 0,0 l/m 0 min 0 min 0 W/m 4,2 km/h (1 Bft)
16.07.2015 03:58 16,9 C 15,6 C 93 % 15 lf 1018,3 hPa 0,0 l/m 0 min 0 min 0 W/m 4,2 km/h (1 Bft)
16.07.2015 04:00 16,9 C 15,6 C 93 % 15 lf 1018,3 hPa 0,0 l/m 0 min 0 min 0 W/m 4,2 km/h (1 Bft)
16.07.2015 04:02 16,9 C 15,6 C 94 % 15 lf 1018,3 hPa 0,0 l/m 0 min 0 min 0 W/m 2,1 km/h (1 Bft)
16.07.2015 04:04 16,9 C 15,6 C 94 % 15 lf 1018,3 hPa 0,0 l/m 0 min 0 min 0 W/m 4,2 km/h (1 Bft)
16.07.2015 04:06 16,9 C 15,6 C 94 % 15 lf 1018,2 hPa 0,0 l/m 0 min 0 min 0 W/m 6,3 km/h (2 Bft)
16.07.2015 04:08 16,9 C 15,6 C 94 % 15 lf 1018,2 hPa 0,0 l/m 0 min 0 min 0 W/m 6,3 km/h (2 Bft)
16.07.2015 04:10 16,9 C 15,6 C 94 % 15 lf 1018,2 hPa 0,0 l/m 0 min 0 min 0 W/m 4,2 km/h (1 Bft)
16.07.2015 04:12 16,9 C 15,6 C 94 % 15 lf 1018,2 hPa 0,0 l/m 0 min 0 min 0 W/m 4,2 km/h (1 Bft)
16.07.2015 04:14 16,9 C 16,1 C 94 % 15 lf 1018,2 hPa 0,0 l/m 0 min 0 min 0 W/m 4,2 km/h (1 Bft)
16.07.2015 04:16 16,9 C 16,1 C 94 % 15 lf 1018,3 hPa 0,0 l/m 0 min 0 min 0 W/m 8,4 km/h (2 Bft)
16.07.2015 04:18 17,0 C 16,1 C 94 % 15 lf 1018,2 hPa 0,0 l/m 0 min 0 min 0 W/m 6,3 km/h (2 Bft)
16.07.2015 04:20 17,0 C 16,1 C 94 % 15 lf 1018,2 hPa 0,0 l/m 0 min 0 min 0 W/m 8,4 km/h (2 Bft)
16.07.2015 04:22 17,0 C 16,1 C 94 % 15 lf 1018,2 hPa 0,0 l/m 0 min 0 min 0 W/m 6,3 km/h (2 Bft)
16.07.2015 04:24 17,0 C 16,1 C 95 % 15 lf 1018,3 hPa 0,0 l/m 0 min 0 min 0 W/m 8,4 km/h (2 Bft)
16.07.2015 04:26 17,1 C 16,1 C 95 % 15 lf 1018,3 hPa 0,0 l/m 0 min 0 min 0 W/m 6,3 km/h (2 Bft)
16.07.2015 04:28 17,1 C 16,1 C 95 % 15 lf 1018,3 hPa 0,0 l/m 0 min 0 min 0 W/m 4,2 km/h (1 Bft)
16.07.2015 04:30 17,1 C 16,1 C 95 % 15 lf 1018,3 hPa 0,0 l/m 0 min 0 min 0 W/m 6,3 km/h (2 Bft)
16.07.2015 04:32 17,1 C 16,1 C 95 % 15 lf 1018,4 hPa 0,0 l/m 0 min 0 min 0 W/m 4,2 km/h (1 Bft)
16.07.2015 04:34 17,1 C 16,1 C 95 % 15 lf 1018,3 hPa 0,0 l/m 0 min 0 min 0 W/m 8,4 km/h (2 Bft)
16.07.2015 04:36 17,2 C 16,1 C 95 % 15 lf 1018,4 hPa 0,0 l/m 0 min 0 min 0 W/m 8,4 km/h (2 Bft)
16.07.2015 04:38 17,2 C 16,1 C 95 % 15 lf 1018,4 hPa 0,0 l/m 0 min 0 min 0 W/m 8,4 km/h (2 Bft)
16.07.2015 04:40 17,2 C 16,1 C 95 % 15 lf 1018,4 hPa 0,0 l/m 0 min 0 min 0 W/m 8,4 km/h (2 Bft)
16.07.2015 04:42 17,2 C 16,1 C 95 % 15 lf 1018,3 hPa 0,0 l/m 0 min 0 min 0 W/m 6,3 km/h (2 Bft)
16.07.2015 04:44 17,2 C 16,1 C 95 % 15 lf 1018,4 hPa 0,0 l/m 0 min 0 min 0 W/m 2,1 km/h (1 Bft)
16.07.2015 04:46 17,2 C 16,1 C 95 % 15 lf 1018,5 hPa 0,0 l/m 0 min 0 min 0 W/m 4,2 km/h (1 Bft)
16.07.2015 04:48 17,2 C 16,1 C 96 % 15 lf 1018,5 hPa 0,0 l/m 0 min 0 min 0 W/m 4,2 km/h (1 Bft)
16.07.2015 04:50 17,2 C 16,1 C 96 % 15 lf 1018,4 hPa 0,0 l/m 0 min 0 min 0 W/m 6,3 km/h (2 Bft)
16.07.2015 04:52 17,2 C 16,1 C 96 % 15 lf 1018,4 hPa 0,0 l/m 0 min 0 min 0 W/m 6,3 km/h (2 Bft)
16.07.2015 04:54 17,3 C 16,1 C 96 % 15 lf 1018,4 hPa 0,0 l/m 0 min 0 min 0 W/m 4,2 km/h (1 Bft)
16.07.2015 04:56 17,3 C 16,1 C 96 % 15 lf 1018,5 hPa 0,0 l/m 0 min 0 min 0 W/m 8,4 km/h (2 Bft)
16.07.2015 04:58 17,3 C 16,1 C 96 % 15 lf 1018,5 hPa 0,0 l/m 0 min 0 min 0 W/m 10,5 km/h (2 Bft)
16.07.2015 05:00 17,3 C 16,1 C 96 % 15 lf 1018,5 hPa 0,0 l/m 0 min 0 min 0 W/m 8,4 km/h (2 Bft)
16.07.2015 05:02 17,3 C 16,1 C 96 % 15 lf 1018,6 hPa 0,0 l/m 0 min 0 min 0 W/m 12,6 km/h (3 Bft)
16.07.2015 05:04 17,3 C 16,1 C 96 % 15 lf 1018,5 hPa 0,0 l/m 0 min 0 min 0 W/m 10,5 km/h (2 Bft)
16.07.2015 05:06 17,3 C 16,1 C 96 % 15 lf 1018,6 hPa 0,0 l/m 0 min 0 min 0 W/m 10,5 km/h (2 Bft)
16.07.2015 05:08 17,2 C 16,1 C 96 % 15 lf 1018,5 hPa 0,0 l/m 0 min 0 min 0 W/m 6,3 km/h (2 Bft)
16.07.2015 05:10 17,2 C 16,1 C 96 % 15 lf 1018,5 hPa 0,0 l/m 0 min 0 min 0 W/m 2,1 km/h (1 Bft)
16.07.2015 05:12 17,2 C 16,1 C 96 % 15 lf 1018,5 hPa 0,0 l/m 0 min 0 min 0 W/m 2,1 km/h (1 Bft)
16.07.2015 05:14 17,2 C 16,1 C 96 % 15 lf 1018,5 hPa 0,0 l/m 0 min 0 min 0 W/m 2,1 km/h (1 Bft)
16.07.2015 05:16 17,2 C 16,1 C 96 % 15 lf 1018,5 hPa 0,0 l/m 0 min 0 min 0 W/m 2,1 km/h (1 Bft)
16.07.2015 05:18 17,2 C 16,1 C 96 % 15 lf 1018,5 hPa 0,0 l/m 0 min 0 min 0 W/m 4,2 km/h (1 Bft)
16.07.2015 05:20 17,1 C 16,1 C 96 % 15 lf 1018,4 hPa 0,0 l/m 0 min 0 min 0 W/m 4,2 km/h (1 Bft)
16.07.2015 05:22 17,1 C 16,1 C 96 % 15 lf 1018,4 hPa 0,0 l/m 0 min 0 min 0 W/m 2,1 km/h (1 Bft)
16.07.2015 05:24 17,1 C 16,1 C 96 % 15 lf 1018,4 hPa 0,0 l/m 0 min 0 min 0 W/m 0,0 km/h (0 Bft)
16.07.2015 05:26 17,1 C 16,1 C 96 % 15 lf 1018,4 hPa 0,0 l/m 0 min 0 min 0 W/m 0,0 km/h (0 Bft)
16.07.2015 05:28 17,1 C 16,1 C 96 % 15 lf 1018,4 hPa 0,0 l/m 0 min 0 min 0 W/m 4,2 km/h (1 Bft)
16.07.2015 05:30 17,1 C 16,1 C 96 % 15 lf 1018,4 hPa 0,0 l/m 0 min 0 min 0 W/m 2,1 km/h (1 Bft)
16.07.2015 05:32 17,1 C 16,1 C 96 % 15 lf 1018,5 hPa 0,0 l/m 0 min 0 min 0 W/m 0,0 km/h (0 Bft)
16.07.2015 05:34 17,1 C 16,1 C 96 % 15 lf 1018,5 hPa 0,0 l/m 0 min 0 min 5 W/m 4,2 km/h (1 Bft)
16.07.2015 05:36 17,1 C 16,1 C 96 % 14 lf 1018,4 hPa 0,0 l/m 0 min 0 min 5 W/m 4,2 km/h (1 Bft)
16.07.2015 05:38 17,1 C 16,1 C 96 % 14 lf 1018,4 hPa 0,0 l/m 0 min 0 min 5 W/m 4,2 km/h (1 Bft)
16.07.2015 05:40 17,0 C 16,1 C 96 % 14 lf 1018,4 hPa 0,0 l/m 0 min 0 min 5 W/m 2,1 km/h (1 Bft)
16.07.2015 05:42 17,0 C 16,1 C 96 % 14 lf 1018,4 hPa 0,0 l/m 0 min 0 min 5 W/m 2,1 km/h (1 Bft)
16.07.2015 05:44 17,0 C 16,1 C 96 % 13 lf 1018,5 hPa 0,0 l/m 0 min 0 min 5 W/m 4,2 km/h (1 Bft)
16.07.2015 05:46 17,0 C 16,1 C 96 % 12 lf 1018,6 hPa 0,0 l/m 0 min 0 min 6 W/m 4,2 km/h (1 Bft)
16.07.2015 05:48 17,0 C 16,1 C 96 % 12 lf 1018,6 hPa 0,0 l/m 0 min 0 min 7 W/m 6,3 km/h (2 Bft)
16.07.2015 05:50 17,0 C 16,1 C 96 % 10 lf 1018,6 hPa 0,0 l/m 0 min 0 min 7 W/m 4,2 km/h (1 Bft)
16.07.2015 05:52 17,0 C 16,1 C 96 % 9 lf 1018,6 hPa 0,0 l/m 0 min 0 min 8 W/m 4,2 km/h (1 Bft)
16.07.2015 05:54 17,0 C 16,1 C 96 % 7 lf 1018,6 hPa 0,0 l/m 0 min 0 min 9 W/m 6,3 km/h (2 Bft)
16.07.2015 05:56 17,0 C 16,1 C 96 % 6 lf 1018,6 hPa 0,0 l/m 0 min 0 min 9 W/m 6,3 km/h (2 Bft)
16.07.2015 05:58 17,0 C 16,1 C 96 % 4 lf 1018,6 hPa 0,0 l/m 0 min 0 min 10 W/m 6,3 km/h (2 Bft)
16.07.2015 06:00 17,0 C 16,1 C 96 % 3 lf 1018,6 hPa 0,0 l/m 0 min 0 min 11 W/m 8,4 km/h (2 Bft)
16.07.2015 06:02 17,0 C 16,1 C 96 % 3 lf 1018,6 hPa 0,0 l/m 0 min 0 min 12 W/m 6,3 km/h (2 Bft)
16.07.2015 06:05 16,9 C 16,1 C 96 % 3 lf 1018,7 hPa 0,0 l/m 0 min 0 min 12 W/m 8,4 km/h (2 Bft)
16.07.2015 06:06 16,9 C 16,1 C 96 % 2 lf 1018,7 hPa 0,0 l/m 0 min 0 min 13 W/m 8,4 km/h (2 Bft)
16.07.2015 06:08 16,9 C 16,1 C 96 % 2 lf 1018,7 hPa 0,0 l/m 0 min 0 min 14 W/m 4,2 km/h (1 Bft)
16.07.2015 06:10 16,9 C 16,1 C 96 % 2 lf 1018,7 hPa 0,0 l/m 0 min 0 min 14 W/m 6,3 km/h (2 Bft)
16.07.2015 06:12 16,9 C 16,1 C 96 % 2 lf 1018,7 hPa 0,0 l/m 0 min 0 min 16 W/m 6,3 km/h (2 Bft)
16.07.2015 06:14 16,9 C 16,1 C 96 % 2 lf 1018,8 hPa 0,0 l/m 0 min 0 min 18 W/m 6,3 km/h (2 Bft)
16.07.2015 06:16 16,9 C 15,6 C 96 % 2 lf 1018,7 hPa 0,0 l/m 0 min 0 min 19 W/m 8,4 km/h (2 Bft)
16.07.2015 06:18 16,9 C 15,6 C 96 % 2 lf 1018,7 hPa 0,0 l/m 0 min 0 min 19 W/m 8,4 km/h (2 Bft)
16.07.2015 06:20 16,8 C 15,6 C 96 % 2 lf 1018,7 hPa 0,0 l/m 0 min 0 min 20 W/m 6,3 km/h (2 Bft)
16.07.2015 06:22 16,8 C 15,6 C 96 % 2 lf 1018,7 hPa 0,0 l/m 0 min 0 min 21 W/m 6,3 km/h (2 Bft)
16.07.2015 06:24 16,8 C 16,1 C 96 % 2 lf 1018,7 hPa 0,0 l/m 0 min 0 min 23 W/m 4,2 km/h (1 Bft)
16.07.2015 06:26 16,8 C 16,1 C 96 % 2 lf 1018,7 hPa 0,0 l/m 0 min 0 min 23 W/m 4,2 km/h (1 Bft)
16.07.2015 06:28 16,8 C 16,1 C 96 % 2 lf 1018,7 hPa 0,0 l/m 0 min 0 min 23 W/m 8,4 km/h (2 Bft)
16.07.2015 06:30 16,8 C 16,1 C 96 % 2 lf 1018,7 hPa 0,0 l/m 0 min 0 min 22 W/m 8,4 km/h (2 Bft)
16.07.2015 06:32 16,8 C 16,1 C 96 % 2 lf 1018,7 hPa 0,0 l/m 0 min 0 min 21 W/m 6,3 km/h (2 Bft)
16.07.2015 06:34 16,8 C 16,1 C 96 % 2 lf 1018,7 hPa 0,0 l/m 0 min 0 min 21 W/m 4,2 km/h (1 Bft)
16.07.2015 06:36 16,8 C 16,1 C 96 % 2 lf 1018,7 hPa 0,0 l/m 0 min 0 min 21 W/m 4,2 km/h (1 Bft)
16.07.2015 06:38 16,8 C 16,1 C 96 % 2 lf 1018,8 hPa 0,0 l/m 0 min 0 min 21 W/m 6,3 km/h (2 Bft)
16.07.2015 06:40 16,8 C 16,1 C 96 % 2 lf 1018,8 hPa 0,0 l/m 0 min 0 min 22 W/m 10,5 km/h (2 Bft)
16.07.2015 06:42 16,8 C 16,1 C 96 % 2 lf 1018,8 hPa 0,0 l/m 0 min 0 min 25 W/m 6,3 km/h (2 Bft)
16.07.2015 06:44 16,8 C 16,1 C 96 % 1 lf 1018,9 hPa 0,0 l/m 0 min 0 min 26 W/m 8,4 km/h (2 Bft)
16.07.2015 06:46 16,8 C 16,1 C 96 % 1 lf 1018,8 hPa 0,0 l/m 0 min 0 min 36 W/m 6,3 km/h (2 Bft)
16.07.2015 06:48 16,8 C 16,1 C 96 % 1 lf 1018,8 hPa 0,0 l/m 0 min 0 min 41 W/m 4,2 km/h (1 Bft)
16.07.2015 06:50 16,8 C 16,1 C 96 % 1 lf 1018,8 hPa 0,0 l/m 0 min 0 min 33 W/m 6,3 km/h (2 Bft)
16.07.2015 06:52 16,8 C 16,1 C 96 % 1 lf 1018,8 hPa 0,0 l/m 0 min 0 min 34 W/m 6,3 km/h (2 Bft)
16.07.2015 06:54 16,8 C 16,1 C 96 % 1 lf 1018,8 hPa 0,0 l/m 0 min 0 min 34 W/m 6,3 km/h (2 Bft)
16.07.2015 06:56 16,8 C 16,1 C 96 % 1 lf 1018,9 hPa 0,0 l/m 0 min 0 min 27 W/m 8,4 km/h (2 Bft)
16.07.2015 06:58 16,8 C 16,1 C 96 % 1 lf 1018,9 hPa 0,0 l/m 0 min 0 min 26 W/m 8,4 km/h (2 Bft)
16.07.2015 07:00 16,8 C 16,1 C 96 % 1 lf 1018,9 hPa 0,0 l/m 0 min 0 min 32 W/m 8,4 km/h (2 Bft)
16.07.2015 07:02 16,8 C 16,1 C 96 % 1 lf 1018,9 hPa 0,0 l/m 0 min 0 min 34 W/m 12,6 km/h (3 Bft)
16.07.2015 07:04 16,8 C 15,6 C 96 % 1 lf 1018,9 hPa 0,0 l/m 0 min 0 min 34 W/m 10,5 km/h (2 Bft)
16.07.2015 07:06 16,8 C 15,6 C 96 % 2 lf 1018,8 hPa 0,0 l/m 0 min 0 min 35 W/m 12,6 km/h (3 Bft)
16.07.2015 07:08 16,7 C 15,6 C 96 % 2 lf 1018,8 hPa 0,0 l/m 0 min 0 min 37 W/m 10,5 km/h (2 Bft)
16.07.2015 07:10 16,7 C 15,6 C 96 % 2 lf 1018,9 hPa 0,0 l/m 0 min 0 min 40 W/m 10,5 km/h (2 Bft)
16.07.2015 07:12 16,7 C 15,6 C 96 % 2 lf 1018,9 hPa 0,0 l/m 0 min 0 min 38 W/m 10,5 km/h (2 Bft)
16.07.2015 07:14 16,7 C 15,6 C 96 % 2 lf 1018,9 hPa 0,0 l/m 0 min 0 min 32 W/m 8,4 km/h (2 Bft)
16.07.2015 07:16 16,6 C 15,6 C 96 % 2 lf 1018,8 hPa 0,0 l/m 0 min 0 min 35 W/m 8,4 km/h (2 Bft)
16.07.2015 07:18 16,6 C 15,6 C 96 % 2 lf 1018,8 hPa 0,0 l/m 0 min 0 min 34 W/m 10,5 km/h (2 Bft)
16.07.2015 07:20 16,6 C 15,6 C 96 % 2 lf 1018,8 hPa 0,0 l/m 0 min 0 min 37 W/m 8,4 km/h (2 Bft)
16.07.2015 07:22 16,6 C 15,6 C 96 % 2 lf 1018,8 hPa 0,0 l/m 0 min 0 min 35 W/m 8,4 km/h (2 Bft)
16.07.2015 07:24 16,6 C 15,6 C 96 % 2 lf 1018,9 hPa 0,0 l/m 0 min 0 min 29 W/m 8,4 km/h (2 Bft)
16.07.2015 07:26 16,6 C 15,6 C 96 % 2 lf 1018,9 hPa 0,0 l/m 0 min 0 min 32 W/m 6,3 km/h (2 Bft)
16.07.2015 07:27 16,6 C 15,6 C 96 % 2 lf 1018,9 hPa 0,0 l/m 0 min 0 min 39 W/m 6,3 km/h (2 Bft)
16.07.2015 07:28 16,6 C 15,6 C 96 % 2 lf 1018,9 hPa 0,0 l/m 0 min 0 min 39 W/m 4,2 km/h (1 Bft)
16.07.2015 07:29 16,6 C 15,6 C 96 % 2 lf 1018,9 hPa 0,0 l/m 0 min 0 min 48 W/m 6,3 km/h (2 Bft)
16.07.2015 07:30 16,6 C 15,6 C 96 % 2 lf 1018,9 hPa 0,0 l/m 0 min 0 min 49 W/m 10,5 km/h (2 Bft)
16.07.2015 07:32 16,5 C 15,6 C 96 % 1 lf 1018,9 hPa 0,0 l/m 0 min 0 min 47 W/m 6,3 km/h (2 Bft)
16.07.2015 07:34 16,5 C 15,6 C 97 % 1 lf 1018,9 hPa 0,0 l/m 0 min 0 min 41 W/m 8,4 km/h (2 Bft)
16.07.2015 07:36 16,5 C 15,6 C 97 % 1 lf 1018,9 hPa 0,0 l/m 0 min 0 min 37 W/m 6,3 km/h (2 Bft)
16.07.2015 07:38 16,5 C 15,6 C 97 % 1 lf 1019,0 hPa 0,0 l/m 0 min 0 min 41 W/m 6,3 km/h (2 Bft)
16.07.2015 07:40 16,5 C 15,6 C 97 % 1 lf 1019,0 hPa 0,0 l/m 0 min 0 min 46 W/m 8,4 km/h (2 Bft)
16.07.2015 07:42 16,4 C 15,6 C 96 % 1 lf 1018,9 hPa 0,0 l/m 0 min 0 min 45 W/m 8,4 km/h (2 Bft)
16.07.2015 07:44 16,4 C 15,6 C 96 % 1 lf 1019,1 hPa 0,0 l/m 0 min 0 min 48 W/m 12,6 km/h (3 Bft)
16.07.2015 07:46 16,4 C 15,6 C 96 % 1 lf 1018,9 hPa 0,0 l/m 0 min 0 min 58 W/m 8,4 km/h (2 Bft)
16.07.2015 07:48 16,4 C 15,6 C 96 % 1 lf 1019,0 hPa 0,0 l/m 0 min 0 min 58 W/m 10,5 km/h (2 Bft)
16.07.2015 07:50 16,4 C 15,6 C 96 % 1 lf 1019,0 hPa 0,0 l/m 0 min 0 min 63 W/m 10,5 km/h (2 Bft)
16.07.2015 07:52 16,4 C 15,6 C 96 % 1 lf 1019,0 hPa 0,0 l/m 0 min 0 min 69 W/m 10,5 km/h (2 Bft)
16.07.2015 07:54 16,4 C 15,6 C 96 % 1 lf 1019,0 hPa 0,0 l/m 0 min 0 min 69 W/m 12,6 km/h (3 Bft)
16.07.2015 07:56 16,4 C 15,6 C 96 % 1 lf 1019,0 hPa 0,0 l/m 0 min 0 min 70 W/m 10,5 km/h (2 Bft)
16.07.2015 07:58 16,4 C 15,6 C 96 % 1 lf 1019,0 hPa 0,0 l/m 0 min 0 min 74 W/m 12,6 km/h (3 Bft)
16.07.2015 08:00 16,4 C 15,6 C 96 % 1 lf 1019,0 hPa 0,0 l/m 0 min 0 min 76 W/m 10,5 km/h (2 Bft)
16.07.2015 08:02 16,4 C 15,6 C 96 % 1 lf 1019,0 hPa 0,0 l/m 0 min 0 min 80 W/m 12,6 km/h (3 Bft)
16.07.2015 08:04 16,4 C 15,6 C 96 % 1 lf 1019,0 hPa 0,0 l/m 0 min 0 min 86 W/m 12,6 km/h (3 Bft)
16.07.2015 08:06 16,4 C 16,1 C 96 % 1 lf 1018,9 hPa 0,0 l/m 0 min 0 min 84 W/m 10,5 km/h (2 Bft)
16.07.2015 08:08 16,4 C 16,1 C 96 % 1 lf 1018,9 hPa 0,0 l/m 0 min 0 min 86 W/m 10,5 km/h (2 Bft)
16.07.2015 08:10 16,4 C 15,6 C 96 % 1 lf 1018,9 hPa 0,0 l/m 0 min 0 min 84 W/m 12,6 km/h (3 Bft)
16.07.2015 08:12 16,4 C 15,6 C 96 % 1 lf 1019,0 hPa 0,0 l/m 0 min 0 min 81 W/m 12,6 km/h (3 Bft)
16.07.2015 08:14 16,4 C 15,6 C 96 % 1 lf 1019,0 hPa 0,0 l/m 0 min 0 min 84 W/m 10,5 km/h (2 Bft)
16.07.2015 08:16 16,4 C 16,1 C 96 % 1 lf 1019,1 hPa 0,0 l/m 0 min 0 min 82 W/m 10,5 km/h (2 Bft)
16.07.2015 08:18 16,4 C 16,1 C 96 % 1 lf 1019,0 hPa 0,0 l/m 0 min 0 min 77 W/m 6,3 km/h (2 Bft)
16.07.2015 08:20 16,4 C 16,1 C 96 % 1 lf 1019,1 hPa 0,0 l/m 0 min 0 min 74 W/m 6,3 km/h (2 Bft)
16.07.2015 08:22 16,4 C 16,1 C 96 % 1 lf 1019,0 hPa 0,0 l/m 0 min 0 min 70 W/m 6,3 km/h (2 Bft)
16.07.2015 08:24 16,4 C 16,1 C 96 % 1 lf 1019,1 hPa 0,0 l/m 0 min 0 min 69 W/m 10,5 km/h (2 Bft)
16.07.2015 08:26 16,4 C 16,1 C 96 % 1 lf 1019,1 hPa 0,0 l/m 0 min 0 min 69 W/m 8,4 km/h (2 Bft)
16.07.2015 08:28 16,4 C 15,6 C 96 % 1 lf 1019,1 hPa 0,0 l/m 0 min 0 min 67 W/m 6,3 km/h (2 Bft)
16.07.2015 08:30 16,4 C 15,6 C 96 % 1 lf 1019,1 hPa 0,0 l/m 0 min 0 min 69 W/m 6,3 km/h (2 Bft)
16.07.2015 08:32 16,4 C 15,6 C 96 % 1 lf 1019,0 hPa 0,0 l/m 0 min 0 min 71 W/m 8,4 km/h (2 Bft)
16.07.2015 08:34 16,4 C 15,6 C 96 % 1 lf 1019,0 hPa 0,0 l/m 0 min 0 min 74 W/m 6,3 km/h (2 Bft)
16.07.2015 08:36 16,5 C 16,1 C 96 % 1 lf 1019,1 hPa 0,0 l/m 0 min 0 min 75 W/m 6,3 km/h (2 Bft)
16.07.2015 08:38 16,5 C 16,1 C 96 % 1 lf 1019,1 hPa 0,0 l/m 0 min 0 min 76 W/m 6,3 km/h (2 Bft)
16.07.2015 08:40 16,5 C 16,1 C 96 % 1 lf 1019,1 hPa 0,0 l/m 0 min 0 min 77 W/m 10,5 km/h (2 Bft)
16.07.2015 08:42 16,5 C 16,1 C 96 % 1 lf 1019,1 hPa 0,0 l/m 0 min 0 min 80 W/m 8,4 km/h (2 Bft)
16.07.2015 08:44 16,6 C 16,1 C 97 % 1 lf 1019,2 hPa 0,0 l/m 0 min 0 min 84 W/m 4,2 km/h (1 Bft)
16.07.2015 08:46 16,6 C 16,1 C 97 % 1 lf 1019,2 hPa 0,0 l/m 0 min 0 min 88 W/m 10,5 km/h (2 Bft)
16.07.2015 08:48 16,6 C 16,1 C 97 % 1 lf 1019,1 hPa 0,0 l/m 0 min 0 min 86 W/m 10,5 km/h (2 Bft)
16.07.2015 08:50 16,6 C 16,1 C 97 % 1 lf 1019,2 hPa 0,0 l/m 0 min 0 min 84 W/m 10,5 km/h (2 Bft)
16.07.2015 08:52 16,6 C 16,1 C 97 % 1 lf 1019,2 hPa 0,0 l/m 0 min 0 min 92 W/m 12,6 km/h (3 Bft)
16.07.2015 08:54 16,6 C 15,6 C 97 % 1 lf 1019,2 hPa 0,0 l/m 0 min 0 min 93 W/m 10,5 km/h (2 Bft)
16.07.2015 08:56 16,6 C 15,6 C 96 % 1 lf 1019,3 hPa 0,0 l/m 0 min 0 min 91 W/m 6,3 km/h (2 Bft)
16.07.2015 08:58 16,5 C 15,6 C 96 % 1 lf 1019,2 hPa 0,0 l/m 0 min 0 min 86 W/m 8,4 km/h (2 Bft)
16.07.2015 09:00 16,5 C 15,6 C 96 % 1 lf 1019,2 hPa 0,0 l/m 0 min 0 min 94 W/m 8,4 km/h (2 Bft)
16.07.2015 09:02 16,5 C 15,6 C 96 % 1 lf 1019,3 hPa 0,0 l/m 0 min 0 min 99 W/m 8,4 km/h (2 Bft)
16.07.2015 09:04 16,5 C 16,1 C 96 % 1 lf 1019,3 hPa 0,0 l/m 0 min 0 min 94 W/m 6,3 km/h (2 Bft)
16.07.2015 09:06 16,5 C 15,6 C 96 % 1 lf 1019,3 hPa 0,0 l/m 0 min 0 min 90 W/m 6,3 km/h (2 Bft)
16.07.2015 09:08 16,5 C 16,1 C 96 % 1 lf 1019,3 hPa 0,0 l/m 0 min 0 min 98 W/m 10,5 km/h (2 Bft)
16.07.2015 09:10 16,5 C 15,6 C 96 % 1 lf 1019,3 hPa 0,0 l/m 0 min 0 min 106 W/m 10,5 km/h (2 Bft)
16.07.2015 09:12 16,5 C 15,6 C 96 % 1 lf 1019,4 hPa 0,0 l/m 0 min 0 min 101 W/m 8,4 km/h (2 Bft)
16.07.2015 09:14 16,4 C 15,6 C 96 % 1 lf 1019,4 hPa 0,0 l/m 0 min 0 min 110 W/m 8,4 km/h (2 Bft)
16.07.2015 09:16 16,4 C 15,6 C 96 % 1 lf 1019,4 hPa 0,0 l/m 0 min 0 min 117 W/m 6,3 km/h (2 Bft)
16.07.2015 09:18 16,4 C 16,1 C 96 % 1 lf 1019,4 hPa 0,0 l/m 0 min 0 min 115 W/m 8,4 km/h (2 Bft)
16.07.2015 09:20 16,4 C 16,1 C 96 % 1 lf 1019,4 hPa 0,0 l/m 0 min 0 min 114 W/m 8,4 km/h (2 Bft)
16.07.2015 09:22 16,4 C 16,1 C 96 % 1 lf 1019,4 hPa 0,0 l/m 0 min 0 min 119 W/m 8,4 km/h (2 Bft)
16.07.2015 09:24 16,4 C 15,6 C 96 % 1 lf 1019,4 hPa 0,0 l/m 0 min 0 min 123 W/m 10,5 km/h (2 Bft)
16.07.2015 09:26 16,4 C 16,1 C 96 % 1 lf 1019,5 hPa 0,0 l/m 0 min 0 min 125 W/m 8,4 km/h (2 Bft)
16.07.2015 09:28 16,4 C 16,1 C 96 % 1 lf 1019,5 hPa 0,0 l/m 0 min 0 min 125 W/m 10,5 km/h (2 Bft)
16.07.2015 09:30 16,4 C 16,1 C 96 % 1 lf 1019,5 hPa 0,0 l/m 0 min 0 min 127 W/m 8,4 km/h (2 Bft)
16.07.2015 09:32 16,4 C 16,1 C 96 % 1 lf 1019,5 hPa 0,0 l/m 0 min 0 min 127 W/m 8,4 km/h (2 Bft)
16.07.2015 09:34 16,4 C 16,1 C 96 % 1 lf 1019,5 hPa 0,0 l/m 0 min 0 min 125 W/m 4,2 km/h (1 Bft)
16.07.2015 09:36 16,4 C 16,1 C 96 % 1 lf 1019,5 hPa 0,0 l/m 0 min 0 min 125 W/m 2,1 km/h (1 Bft)
16.07.2015 09:38 16,4 C 16,1 C 96 % 0 lf 1019,5 hPa 0,0 l/m 0 min 0 min 122 W/m 4,2 km/h (1 Bft)
16.07.2015 09:40 16,4 C 16,1 C 96 % 0 lf 1019,5 hPa 0,0 l/m 0 min 0 min 124 W/m 4,2 km/h (1 Bft)
16.07.2015 09:42 16,4 C 16,1 C 96 % 0 lf 1019,5 hPa 0,0 l/m 0 min 0 min 123 W/m 4,2 km/h (1 Bft)
16.07.2015 09:44 16,5 C 16,1 C 96 % 0 lf 1019,5 hPa 0,0 l/m 0 min 0 min 126 W/m 6,3 km/h (2 Bft)
16.07.2015 09:46 16,5 C 16,1 C 96 % 0 lf 1019,5 hPa 0,0 l/m 0 min 0 min 127 W/m 8,4 km/h (2 Bft)
16.07.2015 09:48 16,5 C 16,1 C 96 % 0 lf 1019,6 hPa 0,0 l/m 0 min 0 min 126 W/m 8,4 km/h (2 Bft)
16.07.2015 09:50 16,5 C 16,1 C 96 % 0 lf 1019,5 hPa 0,0 l/m 0 min 0 min 128 W/m 4,2 km/h (1 Bft)
16.07.2015 09:52 16,6 C 16,1 C 96 % 0 lf 1019,5 hPa 0,0 l/m 0 min 0 min 130 W/m 6,3 km/h (2 Bft)
16.07.2015 09:54 16,6 C 16,7 C 96 % 0 lf 1019,5 hPa 0,0 l/m 0 min 0 min 132 W/m 10,5 km/h (2 Bft)
16.07.2015 09:56 16,6 C 16,1 C 96 % 0 lf 1019,5 hPa 0,0 l/m 0 min 0 min 132 W/m 8,4 km/h (2 Bft)
16.07.2015 09:58 16,6 C 16,7 C 96 % 0 lf 1019,5 hPa 0,0 l/m 0 min 0 min 137 W/m 6,3 km/h (2 Bft)
16.07.2015 10:00 16,6 C 16,7 C 96 % 0 lf 1019,5 hPa 0,0 l/m 0 min 0 min 143 W/m 8,4 km/h (2 Bft)
16.07.2015 10:02 16,6 C 16,7 C 96 % 0 lf 1019,5 hPa 0,0 l/m 0 min 0 min 150 W/m 6,3 km/h (2 Bft)
16.07.2015 10:04 16,7 C 16,7 C 96 % 0 lf 1019,5 hPa 0,0 l/m 0 min 0 min 152 W/m 2,1 km/h (1 Bft)
16.07.2015 10:06 16,7 C 16,7 C 96 % 0 lf 1019,5 hPa 0,0 l/m 0 min 0 min 158 W/m 4,2 km/h (1 Bft)
16.07.2015 10:08 16,7 C 16,7 C 96 % 0 lf 1019,6 hPa 0,0 l/m 0 min 0 min 187 W/m 6,3 km/h (2 Bft)
16.07.2015 10:10 16,7 C 16,7 C 96 % 0 lf 1019,5 hPa 0,0 l/m 0 min 0 min 199 W/m 8,4 km/h (2 Bft)
16.07.2015 10:12 16,7 C 16,7 C 96 % 0 lf 1019,6 hPa 0,0 l/m 0 min 0 min 187 W/m 10,5 km/h (2 Bft)
16.07.2015 10:14 16,7 C 16,7 C 96 % 0 lf 1019,6 hPa 0,0 l/m 0 min 0 min 183 W/m 8,4 km/h (2 Bft)
16.07.2015 10:16 16,7 C 17,2 C 96 % 0 lf 1019,5 hPa 0,0 l/m 0 min 0 min 190 W/m 4,2 km/h (1 Bft)
16.07.2015 10:18 16,7 C 17,2 C 96 % 0 lf 1019,5 hPa 0,0 l/m 0 min 0 min 193 W/m 8,4 km/h (2 Bft)
16.07.2015 10:20 16,8 C 17,2 C 96 % 0 lf 1019,5 hPa 0,0 l/m 0 min 0 min 196 W/m 6,3 km/h (2 Bft)
16.07.2015 10:22 16,8 C 17,2 C 96 % 0 lf 1019,5 hPa 0,0 l/m 0 min 0 min 196 W/m 8,4 km/h (2 Bft)
16.07.2015 10:24 16,9 C 17,2 C 96 % 0 lf 1019,5 hPa 0,0 l/m 0 min 0 min 195 W/m 6,3 km/h (2 Bft)
16.07.2015 10:26 16,9 C 17,2 C 96 % 0 lf 1019,6 hPa 0,0 l/m 0 min 0 min 208 W/m 6,3 km/h (2 Bft)
16.07.2015 10:28 16,9 C 17,2 C 96 % 0 lf 1019,5 hPa 0,0 l/m 0 min 0 min 227 W/m 6,3 km/h (2 Bft)
16.07.2015 10:30 17,0 C 17,2 C 96 % 0 lf 1019,5 hPa 0,0 l/m 0 min 0 min 240 W/m 4,2 km/h (1 Bft)
16.07.2015 10:32 17,0 C 17,2 C 96 % 0 lf 1019,5 hPa 0,0 l/m 0 min 0 min 245 W/m 6,3 km/h (2 Bft)
16.07.2015 10:34 17,0 C 17,2 C 96 % 0 lf 1019,5 hPa 0,0 l/m 0 min 0 min 252 W/m 6,3 km/h (2 Bft)
16.07.2015 10:36 17,0 C 17,2 C 95 % 0 lf 1019,5 hPa 0,0 l/m 0 min 0 min 263 W/m 6,3 km/h (2 Bft)
16.07.2015 10:38 17,1 C 17,2 C 95 % 0 lf 1019,5 hPa 0,0 l/m 0 min 0 min 265 W/m 4,2 km/h (1 Bft)
16.07.2015 10:40 17,1 C 17,8 C 95 % 0 lf 1019,5 hPa 0,0 l/m 0 min 0 min 254 W/m 4,2 km/h (1 Bft)
16.07.2015 10:42 17,1 C 17,8 C 95 % 0 lf 1019,6 hPa 0,0 l/m 0 min 0 min 250 W/m 6,3 km/h (2 Bft)
16.07.2015 10:44 17,2 C 17,8 C 95 % 0 lf 1019,6 hPa 0,0 l/m 0 min 0 min 251 W/m 4,2 km/h (1 Bft)
16.07.2015 10:46 17,2 C 17,8 C 95 % 0 lf 1019,5 hPa 0,0 l/m 0 min 0 min 264 W/m 4,2 km/h (1 Bft)
16.07.2015 10:48 17,3 C 18,3 C 95 % 0 lf 1019,6 hPa 0,0 l/m 0 min 0 min 276 W/m 6,3 km/h (2 Bft)
16.07.2015 10:50 17,3 C 18,3 C 95 % 0 lf 1019,5 hPa 0,0 l/m 0 min 0 min 306 W/m 4,2 km/h (1 Bft)
16.07.2015 10:52 17,4 C 18,3 C 95 % 0 lf 1019,6 hPa 0,0 l/m 0 min 0 min 327 W/m 4,2 km/h (1 Bft)
16.07.2015 10:54 17,5 C 18,3 C 95 % 0 lf 1019,6 hPa 0,0 l/m 2 min 0 min 356 W/m 6,3 km/h (2 Bft)
16.07.2015 10:56 17,6 C 18,3 C 95 % 0 lf 1019,5 hPa 0,0 l/m 2 min 0 min 390 W/m 10,5 km/h (2 Bft)
16.07.2015 10:58 17,6 C 18,9 C 94 % 0 lf 1019,5 hPa 0,0 l/m 2 min 0 min 398 W/m 6,3 km/h (2 Bft)
16.07.2015 11:00 17,7 C 19,4 C 94 % 0 lf 1019,6 hPa 0,0 l/m 2 min 0 min 416 W/m 10,5 km/h (2 Bft)
16.07.2015 11:02 17,8 C 20,0 C 94 % 0 lf 1019,6 hPa 0,0 l/m 2 min 0 min 712 W/m 6,3 km/h (2 Bft)
16.07.2015 11:04 17,9 C 21,1 C 94 % 0 lf 1019,5 hPa 0,0 l/m 2 min 0 min 867 W/m 4,2 km/h (1 Bft)
16.07.2015 11:06 18,0 C 22,8 C 93 % 0 lf 1019,5 hPa 0,0 l/m 2 min 0 min 826 W/m 6,3 km/h (2 Bft)
16.07.2015 11:08 18,2 C 23,9 C 93 % 0 lf 1019,5 hPa 0,0 l/m 2 min 0 min 791 W/m 4,2 km/h (1 Bft)
16.07.2015 11:10 18,3 C 23,9 C 93 % 0 lf 1019,5 hPa 0,0 l/m 2 min 0 min 776 W/m 4,2 km/h (1 Bft)
16.07.2015 11:12 18,5 C 23,9 C 93 % 0 lf 1019,5 hPa 0,0 l/m 2 min 0 min 697 W/m 8,4 km/h (2 Bft)
16.07.2015 11:14 18,7 C 23,9 C 93 % 0 lf 1019,5 hPa 0,0 l/m 2 min 0 min 819 W/m 8,4 km/h (2 Bft)
16.07.2015 11:16 18,8 C 22,8 C 91 % 0 lf 1019,5 hPa 0,0 l/m 2 min 0 min 802 W/m 8,4 km/h (2 Bft)
16.07.2015 11:18 18,9 C 21,1 C 90 % 0 lf 1019,5 hPa 0,0 l/m 0 min 0 min 271 W/m 4,2 km/h (1 Bft)
16.07.2015 11:20 19,0 C 20,0 C 89 % 0 lf 1019,5 hPa 0,0 l/m 0 min 0 min 269 W/m 4,2 km/h (1 Bft)
16.07.2015 11:22 19,1 C 19,4 C 88 % 0 lf 1019,4 hPa 0,0 l/m 0 min 0 min 301 W/m 4,2 km/h (1 Bft)
16.07.2015 11:24 19,2 C 21,1 C 88 % 0 lf 1019,4 hPa 0,0 l/m 2 min 0 min 560 W/m 6,3 km/h (2 Bft)
16.07.2015 11:26 19,3 C 22,2 C 87 % 0 lf 1019,4 hPa 0,0 l/m 2 min 0 min 756 W/m 6,3 km/h (2 Bft)
16.07.2015 11:28 19,6 C 22,8 C 88 % 0 lf 1019,4 hPa 0,0 l/m 2 min 0 min 765 W/m 4,2 km/h (1 Bft)
16.07.2015 11:30 19,8 C 22,8 C 87 % 0 lf 1019,4 hPa 0,0 l/m 2 min 0 min 726 W/m 4,2 km/h (1 Bft)
16.07.2015 11:32 19,9 C 22,8 C 87 % 0 lf 1019,4 hPa 0,0 l/m 2 min 0 min 714 W/m 8,4 km/h (2 Bft)
16.07.2015 11:34 20,1 C 22,2 C 86 % 0 lf 1019,4 hPa 0,0 l/m 2 min 0 min 730 W/m 4,2 km/h (1 Bft)
16.07.2015 11:36 20,3 C 21,7 C 85 % 0 lf 1019,4 hPa 0,0 l/m 2 min 0 min 755 W/m 14,6 km/h (3 Bft)
16.07.2015 11:38 20,3 C 21,1 C 83 % 0 lf 1019,4 hPa 0,0 l/m 2 min 0 min 755 W/m 10,5 km/h (2 Bft)
16.07.2015 11:40 20,4 C 21,7 C 83 % 0 lf 1019,3 hPa 0,0 l/m 2 min 0 min 777 W/m 8,4 km/h (2 Bft)
16.07.2015 11:42 20,6 C 22,2 C 82 % 0 lf 1019,3 hPa 0,0 l/m 2 min 0 min 781 W/m 4,2 km/h (1 Bft)
16.07.2015 11:44 20,7 C 23,3 C 82 % 0 lf 1019,3 hPa 0,0 l/m 2 min 0 min 781 W/m 16,7 km/h (3 Bft)
16.07.2015 11:46 20,8 C 23,3 C 80 % 0 lf 1019,3 hPa 0,0 l/m 2 min 0 min 786 W/m 8,4 km/h (2 Bft)
16.07.2015 11:48 20,9 C 24,4 C 80 % 0 lf 1019,2 hPa 0,0 l/m 2 min 0 min 782 W/m 8,4 km/h (2 Bft)
16.07.2015 11:50 21,0 C 24,4 C 79 % 0 lf 1019,3 hPa 0,0 l/m 2 min 0 min 779 W/m 10,5 km/h (2 Bft)
16.07.2015 11:52 21,1 C 25,6 C 78 % 0 lf 1019,2 hPa 0,0 l/m 2 min 0 min 779 W/m 6,3 km/h (2 Bft)
16.07.2015 11:54 21,2 C 26,1 C 78 % 0 lf 1019,2 hPa 0,0 l/m 2 min 0 min 785 W/m 4,2 km/h (1 Bft)
16.07.2015 11:56 21,4 C 26,7 C 79 % 0 lf 1019,2 hPa 0,0 l/m 2 min 0 min 809 W/m 10,5 km/h (2 Bft)
16.07.2015 11:58 21,6 C 26,1 C 78 % 0 lf 1019,1 hPa 0,0 l/m 2 min 0 min 814 W/m 6,3 km/h (2 Bft)
16.07.2015 12:00 21,8 C 26,1 C 79 % 0 lf 1019,1 hPa 0,0 l/m 2 min 0 min 816 W/m 10,5 km/h (2 Bft)
16.07.2015 12:02 22,0 C 26,1 C 78 % 0 lf 1019,1 hPa 0,0 l/m 2 min 0 min 817 W/m 8,4 km/h (2 Bft)
16.07.2015 12:05 22,2 C 25,0 C 76 % 0 lf 1019,0 hPa 0,0 l/m 2 min 0 min 786 W/m 12,6 km/h (3 Bft)
16.07.2015 12:08 22,3 C 26,1 C 74 % 0 lf 1019,0 hPa 0,0 l/m 2 min 0 min 757 W/m 12,6 km/h (3 Bft)
16.07.2015 12:10 22,4 C 26,7 C 74 % 0 lf 1019,0 hPa 0,0 l/m 2 min 0 min 581 W/m 16,7 km/h (3 Bft)
16.07.2015 12:12 22,6 C 26,7 C 74 % 0 lf 1018,9 hPa 0,0 l/m 2 min 0 min 459 W/m 14,6 km/h (3 Bft)
16.07.2015 12:14 22,7 C 26,1 C 73 % 0 lf 1018,9 hPa 0,0 l/m 0 min 0 min 253 W/m 12,6 km/h (3 Bft)
16.07.2015 12:16 22,7 C 25,6 C 72 % 0 lf 1018,9 hPa 0,0 l/m 0 min 0 min 228 W/m 10,5 km/h (2 Bft)
16.07.2015 12:18 22,8 C 26,1 C 72 % 0 lf 1018,9 hPa 0,0 l/m 0 min 0 min 332 W/m 14,6 km/h (3 Bft)
16.07.2015 12:20 22,8 C 25,6 C 71 % 0 lf 1018,9 hPa 0,0 l/m 0 min 0 min 377 W/m 14,6 km/h (3 Bft)
16.07.2015 12:22 22,8 C 26,1 C 71 % 0 lf 1018,9 hPa 0,0 l/m 0 min 0 min 269 W/m 12,6 km/h (3 Bft)
16.07.2015 12:24 22,9 C 26,1 C 72 % 0 lf 1018,8 hPa 0,0 l/m 0 min 0 min 241 W/m 12,6 km/h (3 Bft)
16.07.2015 12:26 22,9 C 26,1 C 71 % 0 lf 1018,8 hPa 0,0 l/m 0 min 0 min 274 W/m 12,6 km/h (3 Bft)
16.07.2015 12:28 22,9 C 25,6 C 71 % 0 lf 1018,7 hPa 0,0 l/m 2 min 0 min 838 W/m 14,6 km/h (3 Bft)
16.07.2015 12:30 22,9 C 25,6 C 72 % 0 lf 1018,8 hPa 0,0 l/m 2 min 0 min 612 W/m 10,5 km/h (2 Bft)
16.07.2015 12:32 22,9 C 24,4 C 71 % 0 lf 1018,8 hPa 0,0 l/m 2 min 0 min 902 W/m 14,6 km/h (3 Bft)
16.07.2015 12:34 23,0 C 23,9 C 70 % 0 lf 1018,7 hPa 0,0 l/m 2 min 0 min 784 W/m 10,5 km/h (2 Bft)
16.07.2015 12:36 22,9 C 23,9 C 71 % 0 lf 1018,7 hPa 0,0 l/m 2 min 0 min 585 W/m 10,5 km/h (2 Bft)
16.07.2015 12:38 23,0 C 23,9 C 71 % 0 lf 1018,6 hPa 0,0 l/m 2 min 0 min 668 W/m 6,3 km/h (2 Bft)
16.07.2015 12:40 23,0 C 23,9 C 71 % 0 lf 1018,6 hPa 0,0 l/m 2 min 0 min 602 W/m 6,3 km/h (2 Bft)
16.07.2015 12:42 23,1 C 24,4 C 72 % 0 lf 1018,6 hPa 0,0 l/m 2 min 0 min 563 W/m 10,5 km/h (2 Bft)
16.07.2015 12:44 23,1 C 24,4 C 71 % 0 lf 1018,6 hPa 0,0 l/m 2 min 0 min 571 W/m 6,3 km/h (2 Bft)
16.07.2015 12:46 23,2 C 24,4 C 70 % 0 lf 1018,6 hPa 0,0 l/m 2 min 0 min 585 W/m 12,6 km/h (3 Bft)
16.07.2015 12:48 23,2 C 24,4 C 70 % 0 lf 1018,6 hPa 0,0 l/m 2 min 0 min 559 W/m 8,4 km/h (2 Bft)
16.07.2015 12:50 23,3 C 23,9 C 70 % 0 lf 1018,6 hPa 0,0 l/m 2 min 0 min 593 W/m 6,3 km/h (2 Bft)
16.07.2015 12:52 23,4 C 24,4 C 71 % 0 lf 1018,6 hPa 0,0 l/m 2 min 0 min 575 W/m 8,4 km/h (2 Bft)
16.07.2015 12:54 23,6 C 24,4 C 70 % 0 lf 1018,6 hPa 0,0 l/m 2 min 0 min 580 W/m 8,4 km/h (2 Bft)
16.07.2015 12:56 23,7 C 23,9 C 69 % 0 lf 1018,6 hPa 0,0 l/m 2 min 0 min 593 W/m 8,4 km/h (2 Bft)
16.07.2015 12:58 23,7 C 23,9 C 68 % 0 lf 1018,6 hPa 0,0 l/m 2 min 0 min 594 W/m 6,3 km/h (2 Bft)
16.07.2015 13:00 23,8 C 23,9 C 68 % 0 lf 1018,6 hPa 0,0 l/m 2 min 0 min 580 W/m 14,6 km/h (3 Bft)
16.07.2015 13:02 23,9 C 24,4 C 68 % 0 lf 1018,6 hPa 0,0 l/m 2 min 0 min 670 W/m 10,5 km/h (2 Bft)
16.07.2015 13:04 23,9 C 24,4 C 67 % 0 lf 1018,5 hPa 0,0 l/m 2 min 0 min 685 W/m 8,4 km/h (2 Bft)
16.07.2015 13:06 23,9 C 24,4 C 67 % 0 lf 1018,5 hPa 0,0 l/m 2 min 0 min 754 W/m 4,2 km/h (1 Bft)
16.07.2015 13:08 24,0 C 23,9 C 66 % 0 lf 1018,4 hPa 0,0 l/m 2 min 0 min 685 W/m 6,3 km/h (2 Bft)
16.07.2015 13:10 24,1 C 23,9 C 67 % 0 lf 1018,4 hPa 0,0 l/m 2 min 0 min 635 W/m 6,3 km/h (2 Bft)
16.07.2015 13:12 24,2 C 23,9 C 66 % 0 lf 1018,4 hPa 0,0 l/m 2 min 0 min 562 W/m 12,6 km/h (3 Bft)
16.07.2015 13:14 24,2 C 23,3 C 65 % 0 lf 1018,4 hPa 0,0 l/m 2 min 0 min 580 W/m 12,6 km/h (3 Bft)
16.07.2015 13:16 24,2 C 23,3 C 66 % 0 lf 1018,3 hPa 0,0 l/m 2 min 0 min 596 W/m 10,5 km/h (2 Bft)
16.07.2015 13:18 24,2 C 23,9 C 65 % 0 lf 1018,4 hPa 0,0 l/m 2 min 0 min 620 W/m 10,5 km/h (2 Bft)
16.07.2015 13:20 24,2 C 25,0 C 66 % 0 lf 1018,3 hPa 0,0 l/m 2 min 0 min 696 W/m 6,3 km/h (2 Bft)
16.07.2015 13:22 24,2 C 25,0 C 65 % 0 lf 1018,3 hPa 0,0 l/m 2 min 0 min 686 W/m 4,2 km/h (1 Bft)
16.07.2015 13:24 24,3 C 25,0 C 68 % 0 lf 1018,3 hPa 0,0 l/m 2 min 0 min 724 W/m 14,6 km/h (3 Bft)
16.07.2015 13:26 24,4 C 25,6 C 67 % 0 lf 1018,3 hPa 0,0 l/m 2 min 0 min 729 W/m 16,7 km/h (3 Bft)
16.07.2015 13:28 24,5 C 25,0 C 66 % 0 lf 1018,3 hPa 0,0 l/m 2 min 0 min 847 W/m 14,6 km/h (3 Bft)
16.07.2015 13:30 24,6 C 25,0 C 66 % 0 lf 1018,2 hPa 0,0 l/m 2 min 0 min 956 W/m 10,5 km/h (2 Bft)
16.07.2015 13:32 24,8 C 25,0 C 65 % 0 lf 1018,1 hPa 0,0 l/m 2 min 0 min 941 W/m 12,6 km/h (3 Bft)
16.07.2015 13:34 24,9 C 25,0 C 66 % 0 lf 1018,1 hPa 0,0 l/m 2 min 0 min 902 W/m 10,5 km/h (2 Bft)
16.07.2015 13:36 25,1 C 25,0 C 66 % 0 lf 1018,1 hPa 0,0 l/m 2 min 0 min 852 W/m 10,5 km/h (2 Bft)
16.07.2015 13:38 25,1 C 24,4 C 64 % 0 lf 1018,0 hPa 0,0 l/m 2 min 0 min 847 W/m 14,6 km/h (3 Bft)
16.07.2015 13:40 25,2 C 24,4 C 64 % 0 lf 1018,0 hPa 0,0 l/m 2 min 0 min 853 W/m 14,6 km/h (3 Bft)
16.07.2015 13:42 25,3 C 25,0 C 65 % 0 lf 1018,0 hPa 0,0 l/m 2 min 0 min 862 W/m 10,5 km/h (2 Bft)
16.07.2015 13:44 25,6 C 25,0 C 65 % 0 lf 1018,0 hPa 0,0 l/m 2 min 0 min 874 W/m 12,6 km/h (3 Bft)
16.07.2015 13:46 25,7 C 25,6 C 63 % 0 lf 1018,0 hPa 0,0 l/m 2 min 0 min 875 W/m 8,4 km/h (2 Bft)
16.07.2015 13:48 25,7 C 25,0 C 62 % 0 lf 1018,0 hPa 0,0 l/m 2 min 0 min 866 W/m 6,3 km/h (2 Bft)
16.07.2015 13:50 25,8 C 25,0 C 65 % 0 lf 1017,8 hPa 0,0 l/m 2 min 0 min 848 W/m 6,3 km/h (2 Bft)
16.07.2015 13:52 25,9 C 25,0 C 64 % 0 lf 1017,8 hPa 0,0 l/m 2 min 0 min 846 W/m 8,4 km/h (2 Bft)
16.07.2015 13:54 26,1 C 25,0 C 66 % 0 lf 1017,8 hPa 0,0 l/m 2 min 0 min 851 W/m 10,5 km/h (2 Bft)
16.07.2015 13:56 26,3 C 25,0 C 66 % 0 lf 1017,8 hPa 0,0 l/m 2 min 0 min 855 W/m 8,4 km/h (2 Bft)
16.07.2015 13:58 26,5 C 25,0 C 64 % 0 lf 1017,8 hPa 0,0 l/m 2 min 0 min 842 W/m 10,5 km/h (2 Bft)
16.07.2015 14:00 26,7 C 25,6 C 62 % 0 lf 1017,7 hPa 0,0 l/m 2 min 0 min 849 W/m 10,5 km/h (2 Bft)
16.07.2015 14:02 26,7 C 24,4 C 61 % 0 lf 1017,7 hPa 0,0 l/m 2 min 0 min 858 W/m 10,5 km/h (2 Bft)
16.07.2015 14:04 26,8 C 24,4 C 61 % 0 lf 1017,7 hPa 0,0 l/m 2 min 0 min 862 W/m 6,3 km/h (2 Bft)
16.07.2015 14:06 26,8 C 24,4 C 62 % 0 lf 1017,7 hPa 0,0 l/m 2 min 0 min 862 W/m 8,4 km/h (2 Bft)
16.07.2015 14:08 26,8 C 24,4 C 62 % 0 lf 1017,7 hPa 0,0 l/m 2 min 0 min 863 W/m 10,5 km/h (2 Bft)
16.07.2015 14:10 26,8 C 25,0 C 61 % 0 lf 1017,7 hPa 0,0 l/m 2 min 0 min 862 W/m 16,7 km/h (3 Bft)
16.07.2015 14:12 26,9 C 25,0 C 61 % 0 lf 1017,7 hPa 0,0 l/m 2 min 0 min 857 W/m 14,6 km/h (3 Bft)
16.07.2015 14:14 26,9 C 25,0 C 61 % 0 lf 1017,7 hPa 0,0 l/m 2 min 0 min 855 W/m 14,6 km/h (3 Bft)
16.07.2015 14:16 26,9 C 24,4 C 60 % 0 lf 1017,7 hPa 0,0 l/m 2 min 0 min 860 W/m 14,6 km/h (3 Bft)
16.07.2015 14:18 26,8 C 23,9 C 60 % 0 lf 1017,7 hPa 0,0 l/m 2 min 0 min 852 W/m 14,6 km/h (3 Bft)
16.07.2015 14:20 26,6 C 23,9 C 61 % 0 lf 1017,7 hPa 0,0 l/m 2 min 0 min 841 W/m 10,5 km/h (2 Bft)
16.07.2015 14:22 26,6 C 23,9 C 61 % 0 lf 1017,7 hPa 0,0 l/m 2 min 0 min 842 W/m 10,5 km/h (2 Bft)
16.07.2015 14:24 26,4 C 23,9 C 61 % 0 lf 1017,7 hPa 0,0 l/m 2 min 0 min 844 W/m 10,5 km/h (2 Bft)
16.07.2015 14:26 26,4 C 23,9 C 61 % 0 lf 1017,7 hPa 0,0 l/m 2 min 0 min 836 W/m 10,5 km/h (2 Bft)
16.07.2015 14:28 26,3 C 24,4 C 62 % 0 lf 1017,6 hPa 0,0 l/m 2 min 0 min 834 W/m 8,4 km/h (2 Bft)
16.07.2015 14:30 26,3 C 25,0 C 63 % 0 lf 1017,6 hPa 0,0 l/m 2 min 0 min 839 W/m 8,4 km/h (2 Bft)
16.07.2015 14:32 26,4 C 25,0 C 65 % 0 lf 1017,6 hPa 0,0 l/m 2 min 0 min 841 W/m 6,3 km/h (2 Bft)
16.07.2015 14:34 26,5 C 25,6 C 64 % 0 lf 1017,5 hPa 0,0 l/m 2 min 0 min 832 W/m 6,3 km/h (2 Bft)
16.07.2015 14:36 26,5 C 25,6 C 63 % 0 lf 1017,5 hPa 0,0 l/m 2 min 0 min 831 W/m 10,5 km/h (2 Bft)
16.07.2015 14:38 26,6 C 25,0 C 62 % 0 lf 1017,4 hPa 0,0 l/m 2 min 0 min 836 W/m 14,6 km/h (3 Bft)
16.07.2015 14:40 26,7 C 25,0 C 61 % 0 lf 1017,4 hPa 0,0 l/m 2 min 0 min 838 W/m 16,7 km/h (3 Bft)
16.07.2015 14:42 26,7 C 24,4 C 60 % 0 lf 1017,4 hPa 0,0 l/m 2 min 0 min 834 W/m 8,4 km/h (2 Bft)
16.07.2015 14:44 26,7 C 25,0 C 61 % 0 lf 1017,4 hPa 0,0 l/m 2 min 0 min 819 W/m 6,3 km/h (2 Bft)
16.07.2015 14:46 26,7 C 25,0 C 62 % 0 lf 1017,3 hPa 0,0 l/m 2 min 0 min 810 W/m 10,5 km/h (2 Bft)
16.07.2015 14:48 26,8 C 25,0 C 62 % 0 lf 1017,3 hPa 0,0 l/m 2 min 0 min 826 W/m 8,4 km/h (2 Bft)
16.07.2015 14:50 26,8 C 25,6 C 63 % 0 lf 1017,3 hPa 0,0 l/m 2 min 0 min 818 W/m 10,5 km/h (2 Bft)
16.07.2015 14:52 26,9 C 25,6 C 61 % 0 lf 1017,3 hPa 0,0 l/m 2 min 0 min 822 W/m 12,6 km/h (3 Bft)
16.07.2015 14:54 26,9 C 25,0 C 60 % 0 lf 1017,3 hPa 0,0 l/m 2 min 0 min 828 W/m 16,7 km/h (3 Bft)
16.07.2015 14:56 26,9 C 24,4 C 60 % 0 lf 1017,3 hPa 0,0 l/m 2 min 0 min 830 W/m 14,6 km/h (3 Bft)
16.07.2015 14:58 26,8 C 25,0 C 61 % 0 lf 1017,3 hPa 0,0 l/m 2 min 0 min 828 W/m 10,5 km/h (2 Bft)
16.07.2015 15:00 26,8 C 25,0 C 61 % 0 lf 1017,3 hPa 0,0 l/m 2 min 0 min 823 W/m 14,6 km/h (3 Bft)
16.07.2015 15:02 26,9 C 25,6 C 61 % 0 lf 1017,3 hPa 0,0 l/m 2 min 0 min 819 W/m 10,5 km/h (2 Bft)
16.07.2015 15:04 26,9 C 25,6 C 61 % 0 lf 1017,2 hPa 0,0 l/m 2 min 0 min 819 W/m 12,6 km/h (3 Bft)
16.07.2015 15:06 26,9 C 25,6 C 61 % 0 lf 1017,3 hPa 0,0 l/m 2 min 0 min 813 W/m 12,6 km/h (3 Bft)
16.07.2015 15:08 26,9 C 25,6 C 61 % 0 lf 1017,3 hPa 0,0 l/m 2 min 0 min 809 W/m 8,4 km/h (2 Bft)
16.07.2015 15:10 27,0 C 25,6 C 63 % 0 lf 1017,2 hPa 0,0 l/m 2 min 0 min 802 W/m 10,5 km/h (2 Bft)
16.07.2015 15:12 27,1 C 25,6 C 63 % 0 lf 1017,2 hPa 0,0 l/m 2 min 0 min 799 W/m 10,5 km/h (2 Bft)
16.07.2015 15:14 27,2 C 25,6 C 61 % 0 lf 1017,1 hPa 0,0 l/m 2 min 0 min 798 W/m 14,6 km/h (3 Bft)
16.07.2015 15:16 27,2 C 25,6 C 61 % 0 lf 1017,1 hPa 0,0 l/m 2 min 0 min 798 W/m 14,6 km/h (3 Bft)
16.07.2015 15:18 27,2 C 25,6 C 61 % 0 lf 1017,0 hPa 0,0 l/m 2 min 0 min 796 W/m 16,7 km/h (3 Bft)
16.07.2015 15:20 27,3 C 25,6 C 61 % 0 lf 1017,1 hPa 0,0 l/m 2 min 0 min 794 W/m 6,3 km/h (2 Bft)
16.07.2015 15:22 27,3 C 25,6 C 60 % 0 lf 1017,1 hPa 0,0 l/m 2 min 0 min 791 W/m 16,7 km/h (3 Bft)
16.07.2015 15:24 27,3 C 25,0 C 60 % 0 lf 1017,0 hPa 0,0 l/m 2 min 0 min 790 W/m 12,6 km/h (3 Bft)
16.07.2015 15:26 27,3 C 25,6 C 60 % 0 lf 1017,1 hPa 0,0 l/m 2 min 0 min 789 W/m 14,6 km/h (3 Bft)
16.07.2015 15:28 27,3 C 25,6 C 61 % 0 lf 1017,1 hPa 0,0 l/m 2 min 0 min 789 W/m 4,2 km/h (1 Bft)
16.07.2015 15:30 27,4 C 25,6 C 62 % 0 lf 1017,1 hPa 0,0 l/m 2 min 0 min 787 W/m 10,5 km/h (2 Bft)
16.07.2015 15:32 27,6 C 25,6 C 61 % 0 lf 1017,0 hPa 0,0 l/m 2 min 0 min 785 W/m 12,6 km/h (3 Bft)
16.07.2015 15:34 27,6 C 25,6 C 59 % 0 lf 1017,0 hPa 0,0 l/m 2 min 0 min 780 W/m 12,6 km/h (3 Bft)
16.07.2015 15:36 27,6 C 25,0 C 59 % 0 lf 1016,9 hPa 0,0 l/m 2 min 0 min 776 W/m 10,5 km/h (2 Bft)
16.07.2015 15:38 27,6 C 25,6 C 59 % 0 lf 1016,9 hPa 0,0 l/m 2 min 0 min 773 W/m 8,4 km/h (2 Bft)
16.07.2015 15:40 27,7 C 25,6 C 61 % 0 lf 1016,9 hPa 0,0 l/m 2 min 0 min 771 W/m 6,3 km/h (2 Bft)
16.07.2015 15:42 27,8 C 26,1 C 61 % 0 lf 1016,9 hPa 0,0 l/m 2 min 0 min 769 W/m 12,6 km/h (3 Bft)
16.07.2015 15:44 27,9 C 25,6 C 59 % 0 lf 1016,9 hPa 0,0 l/m 2 min 0 min 766 W/m 10,5 km/h (2 Bft)
16.07.2015 15:46 27,9 C 25,6 C 58 % 0 lf 1016,8 hPa 0,0 l/m 2 min 0 min 765 W/m 8,4 km/h (2 Bft)
16.07.2015 15:48 27,9 C 25,6 C 59 % 0 lf 1016,8 hPa 0,0 l/m 2 min 0 min 759 W/m 6,3 km/h (2 Bft)
16.07.2015 15:50 27,9 C 25,6 C 59 % 0 lf 1016,8 hPa 0,0 l/m 2 min 0 min 757 W/m 10,5 km/h (2 Bft)
16.07.2015 15:52 27,9 C 25,6 C 59 % 0 lf 1016,9 hPa 0,0 l/m 2 min 0 min 754 W/m 10,5 km/h (2 Bft)
16.07.2015 15:54 27,9 C 25,6 C 58 % 0 lf 1016,8 hPa 0,0 l/m 2 min 0 min 749 W/m 6,3 km/h (2 Bft)
16.07.2015 15:56 27,9 C 25,6 C 58 % 0 lf 1016,7 hPa 0,0 l/m 2 min 0 min 747 W/m 8,4 km/h (2 Bft)
16.07.2015 15:58 27,9 C 25,6 C 58 % 0 lf 1016,8 hPa 0,0 l/m 2 min 0 min 743 W/m 10,5 km/h (2 Bft)
16.07.2015 16:00 27,9 C 25,6 C 59 % 0 lf 1016,7 hPa 0,0 l/m 2 min 0 min 743 W/m 6,3 km/h (2 Bft)
16.07.2015 16:02 27,9 C 25,6 C 58 % 0 lf 1016,7 hPa 0,0 l/m 2 min 0 min 738 W/m 10,5 km/h (2 Bft)
16.07.2015 16:04 27,9 C 25,6 C 58 % 0 lf 1016,7 hPa 0,0 l/m 2 min 0 min 735 W/m 4,2 km/h (1 Bft)
16.07.2015 16:06 27,9 C 26,1 C 60 % 0 lf 1016,6 hPa 0,0 l/m 2 min 0 min 732 W/m 6,3 km/h (2 Bft)
16.07.2015 16:08 28,0 C 25,6 C 58 % 0 lf 1016,7 hPa 0,0 l/m 2 min 0 min 727 W/m 8,4 km/h (2 Bft)
16.07.2015 16:10 28,0 C 26,1 C 59 % 0 lf 1016,6 hPa 0,0 l/m 2 min 0 min 723 W/m 8,4 km/h (2 Bft)
16.07.2015 16:12 28,1 C 26,1 C 59 % 0 lf 1016,6 hPa 0,0 l/m 2 min 0 min 719 W/m 8,4 km/h (2 Bft)
16.07.2015 16:14 28,1 C 26,1 C 58 % 0 lf 1016,5 hPa 0,0 l/m 2 min 0 min 715 W/m 8,4 km/h (2 Bft)
16.07.2015 16:16 28,1 C 26,1 C 58 % 0 lf 1016,5 hPa 0,0 l/m 2 min 0 min 710 W/m 10,5 km/h (2 Bft)
16.07.2015 16:18 28,1 C 26,7 C 58 % 0 lf 1016,5 hPa 0,0 l/m 2 min 0 min 707 W/m 10,5 km/h (2 Bft)
16.07.2015 16:20 28,1 C 27,8 C 58 % 0 lf 1016,4 hPa 0,0 l/m 2 min 0 min 705 W/m 10,5 km/h (2 Bft)
16.07.2015 16:22 28,1 C 27,2 C 58 % 0 lf 1016,4 hPa 0,0 l/m 2 min 0 min 700 W/m 14,6 km/h (3 Bft)
16.07.2015 16:24 28,0 C 26,1 C 58 % 0 lf 1016,4 hPa 0,0 l/m 2 min 0 min 694 W/m 10,5 km/h (2 Bft)
16.07.2015 16:26 28,0 C 27,2 C 58 % 0 lf 1016,3 hPa 0,0 l/m 2 min 0 min 689 W/m 10,5 km/h (2 Bft)
16.07.2015 16:28 28,1 C 28,9 C 60 % 0 lf 1016,3 hPa 0,0 l/m 2 min 0 min 685 W/m 8,4 km/h (2 Bft)
16.07.2015 16:30 28,1 C 29,4 C 61 % 0 lf 1016,3 hPa 0,0 l/m 2 min 0 min 680 W/m 6,3 km/h (2 Bft)
16.07.2015 16:32 28,2 C 28,3 C 59 % 0 lf 1016,2 hPa 0,0 l/m 2 min 0 min 675 W/m 8,4 km/h (2 Bft)
16.07.2015 16:34 28,2 C 27,2 C 58 % 0 lf 1016,2 hPa 0,0 l/m 2 min 0 min 674 W/m 12,6 km/h (3 Bft)
16.07.2015 16:36 28,2 C 26,7 C 58 % 0 lf 1016,2 hPa 0,0 l/m 2 min 0 min 676 W/m 10,5 km/h (2 Bft)
16.07.2015 16:38 28,2 C 26,7 C 58 % 0 lf 1016,2 hPa 0,0 l/m 2 min 0 min 670 W/m 10,5 km/h (2 Bft)
16.07.2015 16:40 28,2 C 26,7 C 58 % 0 lf 1016,1 hPa 0,0 l/m 2 min 0 min 664 W/m 6,3 km/h (2 Bft)
16.07.2015 16:42 28,2 C 26,7 C 58 % 0 lf 1016,1 hPa 0,0 l/m 2 min 0 min 660 W/m 6,3 km/h (2 Bft)
16.07.2015 16:44 28,3 C 26,7 C 58 % 0 lf 1016,1 hPa 0,0 l/m 2 min 0 min 658 W/m 10,5 km/h (2 Bft)
16.07.2015 16:46 28,3 C 26,1 C 58 % 0 lf 1016,1 hPa 0,0 l/m 2 min 0 min 655 W/m 14,6 km/h (3 Bft)
16.07.2015 16:48 28,4 C 26,7 C 59 % 0 lf 1016,0 hPa 0,0 l/m 2 min 0 min 652 W/m 4,2 km/h (1 Bft)
16.07.2015 16:50 28,4 C 26,7 C 58 % 0 lf 1016,0 hPa 0,0 l/m 2 min 0 min 645 W/m 6,3 km/h (2 Bft)
16.07.2015 16:52 28,4 C 26,7 C 57 % 0 lf 1016,0 hPa 0,0 l/m 2 min 0 min 639 W/m 10,5 km/h (2 Bft)
16.07.2015 16:54 28,4 C 26,7 C 57 % 0 lf 1016,0 hPa 0,0 l/m 2 min 0 min 628 W/m 8,4 km/h (2 Bft)
16.07.2015 16:56 28,5 C 26,7 C 57 % 0 lf 1016,0 hPa 0,0 l/m 2 min 0 min 621 W/m 4,2 km/h (1 Bft)
16.07.2015 16:58 28,6 C 26,7 C 58 % 0 lf 1015,9 hPa 0,0 l/m 2 min 0 min 614 W/m 8,4 km/h (2 Bft)
16.07.2015 17:00 28,6 C 26,1 C 57 % 0 lf 1015,8 hPa 0,0 l/m 2 min 0 min 608 W/m 8,4 km/h (2 Bft)
16.07.2015 17:02 28,7 C 26,1 C 56 % 0 lf 1015,8 hPa 0,0 l/m 2 min 0 min 604 W/m 14,6 km/h (3 Bft)
16.07.2015 17:04 28,7 C 26,1 C 56 % 0 lf 1015,8 hPa 0,0 l/m 2 min 0 min 600 W/m 6,3 km/h (2 Bft)
16.07.2015 17:06 28,7 C 26,1 C 57 % 0 lf 1015,9 hPa 0,0 l/m 2 min 0 min 597 W/m 14,6 km/h (3 Bft)
16.07.2015 17:08 28,7 C 26,1 C 56 % 0 lf 1015,8 hPa 0,0 l/m 2 min 0 min 590 W/m 12,6 km/h (3 Bft)
16.07.2015 17:10 28,7 C 26,7 C 57 % 0 lf 1015,8 hPa 0,0 l/m 2 min 0 min 588 W/m 6,3 km/h (2 Bft)
16.07.2015 17:12 28,7 C 26,1 C 56 % 0 lf 1015,8 hPa 0,0 l/m 2 min 0 min 586 W/m 6,3 km/h (2 Bft)
16.07.2015 17:14 28,7 C 26,1 C 56 % 0 lf 1015,8 hPa 0,0 l/m 2 min 0 min 581 W/m 23,0 km/h (4 Bft)
16.07.2015 17:16 28,6 C 26,1 C 56 % 0 lf 1015,6 hPa 0,0 l/m 2 min 0 min 571 W/m 18,8 km/h (3 Bft)
16.07.2015 17:18 28,5 C 26,1 C 57 % 0 lf 1015,6 hPa 0,0 l/m 2 min 0 min 566 W/m 14,6 km/h (3 Bft)
16.07.2015 17:20 28,5 C 26,1 C 57 % 0 lf 1015,7 hPa 0,0 l/m 2 min 0 min 561 W/m 18,8 km/h (3 Bft)
16.07.2015 17:22 28,4 C 26,1 C 57 % 0 lf 1015,7 hPa 0,0 l/m 2 min 0 min 553 W/m 10,5 km/h (2 Bft)
16.07.2015 17:24 28,4 C 26,1 C 56 % 0 lf 1015,7 hPa 0,0 l/m 2 min 0 min 537 W/m 20,9 km/h (4 Bft)
16.07.2015 17:26 28,3 C 25,6 C 56 % 0 lf 1015,6 hPa 0,0 l/m 2 min 0 min 548 W/m 20,9 km/h (4 Bft)
16.07.2015 17:28 28,3 C 25,6 C 56 % 0 lf 1015,6 hPa 0,0 l/m 2 min 0 min 540 W/m 14,6 km/h (3 Bft)
16.07.2015 17:30 28,2 C 25,6 C 56 % 0 lf 1015,6 hPa 0,0 l/m 2 min 0 min 543 W/m 14,6 km/h (3 Bft)
16.07.2015 17:32 28,1 C 25,6 C 57 % 0 lf 1015,6 hPa 0,0 l/m 2 min 0 min 543 W/m 14,6 km/h (3 Bft)
16.07.2015 17:34 28,1 C 25,6 C 57 % 0 lf 1015,6 hPa 0,0 l/m 2 min 0 min 542 W/m 18,8 km/h (3 Bft)
16.07.2015 17:36 28,1 C 25,6 C 57 % 0 lf 1015,6 hPa 0,0 l/m 2 min 0 min 538 W/m 14,6 km/h (3 Bft)
16.07.2015 17:38 28,1 C 26,1 C 58 % 0 lf 1015,5 hPa 0,0 l/m 2 min 0 min 530 W/m 10,5 km/h (2 Bft)
16.07.2015 17:40 28,1 C 25,6 C 58 % 0 lf 1015,4 hPa 0,0 l/m 2 min 0 min 522 W/m 14,6 km/h (3 Bft)
16.07.2015 17:42 28,1 C 26,1 C 58 % 0 lf 1015,4 hPa 0,0 l/m 2 min 0 min 517 W/m 14,6 km/h (3 Bft)
16.07.2015 17:44 28,1 C 25,6 C 57 % 0 lf 1015,4 hPa 0,0 l/m 2 min 0 min 511 W/m 14,6 km/h (3 Bft)
16.07.2015 17:46 28,1 C 25,6 C 58 % 0 lf 1015,4 hPa 0,0 l/m 2 min 0 min 511 W/m 14,6 km/h (3 Bft)
16.07.2015 17:48 28,1 C 25,6 C 58 % 0 lf 1015,3 hPa 0,0 l/m 2 min 0 min 502 W/m 10,5 km/h (2 Bft)
16.07.2015 17:50 28,1 C 25,6 C 57 % 0 lf 1015,3 hPa 0,0 l/m 2 min 0 min 490 W/m 12,6 km/h (3 Bft)
16.07.2015 17:52 28,1 C 25,6 C 58 % 0 lf 1015,3 hPa 0,0 l/m 2 min 0 min 485 W/m 10,5 km/h (2 Bft)
16.07.2015 17:54 28,2 C 25,6 C 58 % 0 lf 1015,3 hPa 0,0 l/m 2 min 0 min 479 W/m 12,6 km/h (3 Bft)
16.07.2015 17:56 28,2 C 25,6 C 58 % 0 lf 1015,3 hPa 0,0 l/m 2 min 0 min 469 W/m 14,6 km/h (3 Bft)
16.07.2015 17:58 28,2 C 25,6 C 58 % 0 lf 1015,2 hPa 0,0 l/m 2 min 0 min 465 W/m 18,8 km/h (3 Bft)
16.07.2015 18:00 28,2 C 25,6 C 58 % 0 lf 1015,2 hPa 0,0 l/m 2 min 0 min 461 W/m 12,6 km/h (3 Bft)
16.07.2015 18:02 28,2 C 25,6 C 58 % 0 lf 1015,2 hPa 0,0 l/m 2 min 0 min 451 W/m 14,6 km/h (3 Bft)
16.07.2015 18:05 28,1 C 25,6 C 58 % 0 lf 1015,2 hPa 0,0 l/m 2 min 0 min 446 W/m 16,7 km/h (3 Bft)
16.07.2015 18:06 28,1 C 25,6 C 58 % 0 lf 1015,1 hPa 0,0 l/m 1 min 0 min 447 W/m 16,7 km/h (3 Bft)
16.07.2015 18:08 28,1 C 25,6 C 58 % 0 lf 1015,1 hPa 0,0 l/m 2 min 0 min 445 W/m 18,8 km/h (3 Bft)
16.07.2015 18:10 28,1 C 25,6 C 58 % 0 lf 1015,2 hPa 0,0 l/m 2 min 0 min 442 W/m 16,7 km/h (3 Bft)
16.07.2015 18:12 28,1 C 25,6 C 57 % 0 lf 1015,2 hPa 0,0 l/m 2 min 0 min 435 W/m 14,6 km/h (3 Bft)
16.07.2015 18:14 28,1 C 25,6 C 57 % 0 lf 1015,1 hPa 0,0 l/m 2 min 0 min 432 W/m 12,6 km/h (3 Bft)
16.07.2015 18:16 28,0 C 25,6 C 57 % 0 lf 1015,1 hPa 0,0 l/m 2 min 0 min 428 W/m 10,5 km/h (2 Bft)
16.07.2015 18:18 27,9 C 25,6 C 58 % 0 lf 1015,0 hPa 0,0 l/m 2 min 0 min 423 W/m 20,9 km/h (4 Bft)
16.07.2015 18:20 27,9 C 25,6 C 58 % 0 lf 1015,1 hPa 0,0 l/m 2 min 0 min 414 W/m 14,6 km/h (3 Bft)
16.07.2015 18:22 27,9 C 25,6 C 58 % 0 lf 1015,1 hPa 0,0 l/m 2 min 0 min 405 W/m 14,6 km/h (3 Bft)
16.07.2015 18:24 27,8 C 25,6 C 58 % 0 lf 1015,0 hPa 0,0 l/m 2 min 0 min 397 W/m 16,7 km/h (3 Bft)
16.07.2015 18:26 27,8 C 25,6 C 58 % 0 lf 1014,9 hPa 0,0 l/m 2 min 0 min 390 W/m 14,6 km/h (3 Bft)
16.07.2015 18:28 27,8 C 25,6 C 58 % 0 lf 1015,0 hPa 0,0 l/m 2 min 0 min 385 W/m 16,7 km/h (3 Bft)
16.07.2015 18:30 27,7 C 25,6 C 59 % 0 lf 1014,9 hPa 0,0 l/m 2 min 0 min 380 W/m 8,4 km/h (2 Bft)
16.07.2015 18:32 27,7 C 25,6 C 58 % 0 lf 1015,0 hPa 0,0 l/m 2 min 0 min 371 W/m 14,6 km/h (3 Bft)
16.07.2015 18:34 27,7 C 25,6 C 59 % 0 lf 1014,9 hPa 0,0 l/m 2 min 0 min 366 W/m 10,5 km/h (2 Bft)
16.07.2015 18:36 27,7 C 25,6 C 58 % 0 lf 1015,0 hPa 0,0 l/m 2 min 0 min 362 W/m 12,6 km/h (3 Bft)
16.07.2015 18:38 27,6 C 25,0 C 59 % 0 lf 1015,0 hPa 0,0 l/m 2 min 0 min 358 W/m 10,5 km/h (2 Bft)
16.07.2015 18:40 27,6 C 25,0 C 59 % 0 lf 1014,9 hPa 0,0 l/m 2 min 0 min 352 W/m 12,6 km/h (3 Bft)
16.07.2015 18:42 27,6 C 25,6 C 59 % 0 lf 1014,8 hPa 0,0 l/m 2 min 0 min 345 W/m 14,6 km/h (3 Bft)
16.07.2015 18:44 27,6 C 25,6 C 59 % 0 lf 1014,9 hPa 0,0 l/m 2 min 0 min 340 W/m 14,6 km/h (3 Bft)
16.07.2015 18:46 27,6 C 25,0 C 59 % 0 lf 1014,9 hPa 0,0 l/m 2 min 0 min 337 W/m 10,5 km/h (2 Bft)
16.07.2015 18:48 27,6 C 25,0 C 60 % 0 lf 1014,9 hPa 0,0 l/m 2 min 0 min 331 W/m 12,6 km/h (3 Bft)
16.07.2015 18:50 27,6 C 25,0 C 60 % 0 lf 1014,9 hPa 0,0 l/m 2 min 0 min 326 W/m 14,6 km/h (3 Bft)
16.07.2015 18:52 27,6 C 25,0 C 60 % 0 lf 1014,9 hPa 0,0 l/m 2 min 0 min 322 W/m 8,4 km/h (2 Bft)
16.07.2015 18:54 27,6 C 25,0 C 59 % 0 lf 1014,8 hPa 0,0 l/m 2 min 0 min 317 W/m 12,6 km/h (3 Bft)
16.07.2015 18:56 27,6 C 25,0 C 60 % 0 lf 1014,8 hPa 0,0 l/m 2 min 0 min 313 W/m 10,5 km/h (2 Bft)
16.07.2015 18:58 27,6 C 25,0 C 59 % 0 lf 1014,7 hPa 0,0 l/m 2 min 0 min 300 W/m 14,6 km/h (3 Bft)
16.07.2015 19:00 27,6 C 25,0 C 59 % 0 lf 1014,7 hPa 0,0 l/m 2 min 0 min 301 W/m 10,5 km/h (2 Bft)
16.07.2015 19:02 27,6 C 25,0 C 59 % 0 lf 1014,6 hPa 0,0 l/m 2 min 0 min 299 W/m 10,5 km/h (2 Bft)
16.07.2015 19:04 27,6 C 25,6 C 59 % 0 lf 1014,7 hPa 0,0 l/m 2 min 0 min 295 W/m 16,7 km/h (3 Bft)
16.07.2015 19:06 27,6 C 25,6 C 59 % 0 lf 1014,6 hPa 0,0 l/m 2 min 0 min 287 W/m 12,6 km/h (3 Bft)
16.07.2015 19:08 27,6 C 25,6 C 59 % 0 lf 1014,6 hPa 0,0 l/m 2 min 0 min 281 W/m 10,5 km/h (2 Bft)
16.07.2015 19:10 27,5 C 25,6 C 59 % 0 lf 1014,5 hPa 0,0 l/m 2 min 0 min 277 W/m 16,7 km/h (3 Bft)
16.07.2015 19:12 27,5 C 25,6 C 60 % 0 lf 1014,5 hPa 0,0 l/m 2 min 0 min 271 W/m 14,6 km/h (3 Bft)
16.07.2015 19:14 27,5 C 25,0 C 60 % 0 lf 1014,5 hPa 0,0 l/m 2 min 0 min 265 W/m 14,6 km/h (3 Bft)
16.07.2015 19:16 27,4 C 25,0 C 60 % 0 lf 1014,4 hPa 0,0 l/m 2 min 0 min 259 W/m 14,6 km/h (3 Bft)
16.07.2015 19:18 27,4 C 25,0 C 60 % 0 lf 1014,4 hPa 0,0 l/m 2 min 0 min 252 W/m 10,5 km/h (2 Bft)
16.07.2015 19:20 27,4 C 25,0 C 61 % 0 lf 1014,4 hPa 0,0 l/m 2 min 0 min 247 W/m 8,4 km/h (2 Bft)
16.07.2015 19:22 27,4 C 25,0 C 61 % 0 lf 1014,4 hPa 0,0 l/m 2 min 0 min 234 W/m 12,6 km/h (3 Bft)
16.07.2015 19:24 27,4 C 25,0 C 61 % 0 lf 1014,4 hPa 0,0 l/m 2 min 0 min 236 W/m 10,5 km/h (2 Bft)
16.07.2015 19:26 27,4 C 25,0 C 61 % 0 lf 1014,4 hPa 0,0 l/m 2 min 0 min 236 W/m 10,5 km/h (2 Bft)
16.07.2015 19:28 27,4 C 25,0 C 61 % 0 lf 1014,3 hPa 0,0 l/m 2 min 0 min 230 W/m 10,5 km/h (2 Bft)
16.07.2015 19:30 27,4 C 25,0 C 61 % 0 lf 1014,3 hPa 0,0 l/m 2 min 0 min 221 W/m 10,5 km/h (2 Bft)
16.07.2015 19:32 27,3 C 25,0 C 60 % 0 lf 1014,3 hPa 0,0 l/m 2 min 0 min 219 W/m 14,6 km/h (3 Bft)
16.07.2015 19:34 27,3 C 25,0 C 60 % 0 lf 1014,2 hPa 0,0 l/m 2 min 0 min 212 W/m 10,5 km/h (2 Bft)
16.07.2015 19:36 27,3 C 25,0 C 60 % 0 lf 1014,2 hPa 0,0 l/m 2 min 0 min 197 W/m 14,6 km/h (3 Bft)
16.07.2015 19:38 27,3 C 25,0 C 60 % 0 lf 1014,2 hPa 0,0 l/m 2 min 0 min 187 W/m 14,6 km/h (3 Bft)
16.07.2015 19:40 27,3 C 25,0 C 61 % 0 lf 1014,2 hPa 0,0 l/m 2 min 0 min 182 W/m 14,6 km/h (3 Bft)
16.07.2015 19:42 27,3 C 25,0 C 60 % 0 lf 1014,2 hPa 0,0 l/m 2 min 0 min 172 W/m 12,6 km/h (3 Bft)
16.07.2015 19:44 27,2 C 25,0 C 60 % 0 lf 1014,2 hPa 0,0 l/m 2 min 0 min 162 W/m 14,6 km/h (3 Bft)
16.07.2015 19:46 27,2 C 25,0 C 61 % 0 lf 1014,2 hPa 0,0 l/m 2 min 0 min 154 W/m 12,6 km/h (3 Bft)
16.07.2015 19:48 27,2 C 25,0 C 61 % 0 lf 1014,2 hPa 0,0 l/m 2 min 0 min 151 W/m 10,5 km/h (2 Bft)
16.07.2015 19:50 27,2 C 25,0 C 61 % 0 lf 1014,1 hPa 0,0 l/m 2 min 0 min 153 W/m 8,4 km/h (2 Bft)
16.07.2015 19:52 27,2 C 24,4 C 61 % 0 lf 1014,1 hPa 0,0 l/m 2 min 0 min 151 W/m 8,4 km/h (2 Bft)
16.07.2015 19:54 27,2 C 24,4 C 62 % 0 lf 1014,2 hPa 0,0 l/m 2 min 0 min 145 W/m 8,4 km/h (2 Bft)
16.07.2015 19:56 27,1 C 24,4 C 62 % 0 lf 1014,1 hPa 0,0 l/m 2 min 0 min 137 W/m 10,5 km/h (2 Bft)
16.07.2015 19:58 27,1 C 24,4 C 62 % 0 lf 1014,1 hPa 0,0 l/m 2 min 0 min 139 W/m 8,4 km/h (2 Bft)
16.07.2015 20:00 27,1 C 25,0 C 62 % 0 lf 1014,1 hPa 0,0 l/m 2 min 0 min 137 W/m 10,5 km/h (2 Bft)
16.07.2015 20:02 27,1 C 25,0 C 62 % 0 lf 1014,1 hPa 0,0 l/m 2 min 0 min 131 W/m 8,4 km/h (2 Bft)
16.07.2015 20:04 27,1 C 25,0 C 62 % 0 lf 1014,1 hPa 0,0 l/m 2 min 0 min 125 W/m 6,3 km/h (2 Bft)
16.07.2015 20:06 27,1 C 25,0 C 62 % 0 lf 1014,0 hPa 0,0 l/m 2 min 0 min 121 W/m 10,5 km/h (2 Bft)
16.07.2015 20:08 27,0 C 24,4 C 62 % 0 lf 1014,0 hPa 0,0 l/m 2 min 0 min 120 W/m 10,5 km/h (2 Bft)
16.07.2015 20:10 27,0 C 24,4 C 62 % 0 lf 1014,0 hPa 0,0 l/m 2 min 0 min 119 W/m 14,6 km/h (3 Bft)
16.07.2015 20:12 27,0 C 24,4 C 62 % 0 lf 1014,1 hPa 0,0 l/m 2 min 0 min 117 W/m 12,6 km/h (3 Bft)
16.07.2015 20:14 26,9 C 24,4 C 63 % 0 lf 1014,1 hPa 0,0 l/m 2 min 0 min 113 W/m 14,6 km/h (3 Bft)
16.07.2015 20:16 26,9 C 24,4 C 63 % 0 lf 1014,0 hPa 0,0 l/m 2 min 0 min 109 W/m 8,4 km/h (2 Bft)
16.07.2015 20:18 26,9 C 24,4 C 63 % 0 lf 1014,0 hPa 0,0 l/m 2 min 0 min 104 W/m 16,7 km/h (3 Bft)
16.07.2015 20:20 26,9 C 24,4 C 63 % 0 lf 1014,0 hPa 0,0 l/m 2 min 0 min 99 W/m 10,5 km/h (2 Bft)
16.07.2015 20:22 26,9 C 23,9 C 63 % 0 lf 1014,0 hPa 0,0 l/m 2 min 0 min 94 W/m 6,3 km/h (2 Bft)
16.07.2015 20:24 26,8 C 24,4 C 63 % 0 lf 1014,0 hPa 0,0 l/m 2 min 0 min 91 W/m 12,6 km/h (3 Bft)
16.07.2015 20:26 26,8 C 23,9 C 64 % 0 lf 1014,0 hPa 0,0 l/m 2 min 0 min 86 W/m 10,5 km/h (2 Bft)
16.07.2015 20:28 26,8 C 23,9 C 64 % 0 lf 1014,0 hPa 0,0 l/m 2 min 0 min 82 W/m 10,5 km/h (2 Bft)
16.07.2015 20:30 26,7 C 23,9 C 63 % 0 lf 1014,0 hPa 0,0 l/m 2 min 0 min 79 W/m 18,8 km/h (3 Bft)
16.07.2015 20:32 26,7 C 23,9 C 64 % 0 lf 1014,0 hPa 0,0 l/m 2 min 0 min 76 W/m 18,8 km/h (3 Bft)
16.07.2015 20:34 26,7 C 23,9 C 64 % 0 lf 1014,0 hPa 0,0 l/m 0 min 0 min 71 W/m 14,6 km/h (3 Bft)
16.07.2015 20:36 26,6 C 23,9 C 64 % 0 lf 1013,9 hPa 0,0 l/m 0 min 0 min 64 W/m 12,6 km/h (3 Bft)
16.07.2015 20:38 26,6 C 23,9 C 64 % 0 lf 1014,0 hPa 0,0 l/m 0 min 0 min 59 W/m 10,5 km/h (2 Bft)
16.07.2015 20:40 26,6 C 23,9 C 64 % 0 lf 1013,9 hPa 0,0 l/m 0 min 0 min 58 W/m 10,5 km/h (2 Bft)
16.07.2015 20:42 26,5 C 23,9 C 64 % 0 lf 1013,9 hPa 0,0 l/m 0 min 0 min 51 W/m 14,6 km/h (3 Bft)
16.07.2015 20:44 26,5 C 23,9 C 65 % 0 lf 1013,9 hPa 0,0 l/m 0 min 0 min 43 W/m 12,6 km/h (3 Bft)
16.07.2015 20:46 26,4 C 23,9 C 65 % 0 lf 1014,0 hPa 0,0 l/m 0 min 0 min 37 W/m 10,5 km/h (2 Bft)
16.07.2015 20:48 26,4 C 23,3 C 65 % 0 lf 1013,9 hPa 0,0 l/m 0 min 0 min 32 W/m 12,6 km/h (3 Bft)
16.07.2015 20:50 26,4 C 23,3 C 65 % 0 lf 1013,9 hPa 0,0 l/m 0 min 0 min 28 W/m 8,4 km/h (2 Bft)
16.07.2015 20:52 26,4 C 23,3 C 65 % 0 lf 1013,8 hPa 0,0 l/m 0 min 0 min 25 W/m 8,4 km/h (2 Bft)
16.07.2015 20:54 26,3 C 23,3 C 65 % 0 lf 1013,8 hPa 0,0 l/m 0 min 0 min 23 W/m 8,4 km/h (2 Bft)
16.07.2015 20:56 26,3 C 22,8 C 65 % 0 lf 1013,9 hPa 0,0 l/m 0 min 0 min 20 W/m 8,4 km/h (2 Bft)
16.07.2015 20:58 26,3 C 22,8 C 65 % 0 lf 1013,9 hPa 0,0 l/m 0 min 0 min 19 W/m 10,5 km/h (2 Bft)
16.07.2015 21:00 26,2 C 22,8 C 66 % 0 lf 1013,8 hPa 0,0 l/m 0 min 0 min 18 W/m 6,3 km/h (2 Bft)
16.07.2015 21:02 26,2 C 22,8 C 66 % 0 lf 1013,8 hPa 0,0 l/m 0 min 0 min 17 W/m 10,5 km/h (2 Bft)
16.07.2015 21:04 26,1 C 22,8 C 66 % 0 lf 1013,9 hPa 0,0 l/m 0 min 0 min 16 W/m 8,4 km/h (2 Bft)
16.07.2015 21:06 26,1 C 22,2 C 66 % 0 lf 1013,9 hPa 0,0 l/m 0 min 0 min 16 W/m 8,4 km/h (2 Bft)
16.07.2015 21:08 26,0 C 22,2 C 66 % 0 lf 1013,9 hPa 0,0 l/m 0 min 0 min 16 W/m 8,4 km/h (2 Bft)
16.07.2015 21:10 25,9 C 22,2 C 67 % 0 lf 1014,0 hPa 0,0 l/m 0 min 0 min 16 W/m 6,3 km/h (2 Bft)
16.07.2015 21:12 25,9 C 22,2 C 67 % 0 lf 1014,0 hPa 0,0 l/m 0 min 0 min 15 W/m 8,4 km/h (2 Bft)
16.07.2015 21:14 25,8 C 22,2 C 67 % 0 lf 1014,0 hPa 0,0 l/m 0 min 0 min 14 W/m 6,3 km/h (2 Bft)
16.07.2015 21:16 25,8 C 22,2 C 67 % 0 lf 1014,0 hPa 0,0 l/m 0 min 0 min 14 W/m 6,3 km/h (2 Bft)
16.07.2015 21:18 25,8 C 22,2 C 67 % 0 lf 1014,0 hPa 0,0 l/m 0 min 0 min 14 W/m 8,4 km/h (2 Bft)
16.07.2015 21:20 25,7 C 21,7 C 67 % 0 lf 1014,0 hPa 0,0 l/m 0 min 0 min 14 W/m 10,5 km/h (2 Bft)
16.07.2015 21:22 25,7 C 21,7 C 67 % 0 lf 1013,9 hPa 0,0 l/m 0 min 0 min 12 W/m 8,4 km/h (2 Bft)
16.07.2015 21:24 25,6 C 21,7 C 68 % 0 lf 1013,9 hPa 0,0 l/m 0 min 0 min 12 W/m 8,4 km/h (2 Bft)
16.07.2015 21:26 25,6 C 21,7 C 68 % 0 lf 1014,0 hPa 0,0 l/m 0 min 0 min 12 W/m 12,6 km/h (3 Bft)
16.07.2015 21:28 25,5 C 21,7 C 68 % 0 lf 1014,1 hPa 0,0 l/m 0 min 0 min 11 W/m 6,3 km/h (2 Bft)
16.07.2015 21:30 25,4 C 21,7 C 68 % 0 lf 1014,1 hPa 0,0 l/m 0 min 0 min 11 W/m 10,5 km/h (2 Bft)
16.07.2015 21:32 25,4 C 22,2 C 68 % 0 lf 1014,2 hPa 0,0 l/m 0 min 0 min 9 W/m 8,4 km/h (2 Bft)
16.07.2015 21:34 25,4 C 22,2 C 68 % 0 lf 1014,1 hPa 0,0 l/m 0 min 0 min 9 W/m 10,5 km/h (2 Bft)
16.07.2015 21:36 25,3 C 21,7 C 69 % 0 lf 1014,2 hPa 0,0 l/m 0 min 0 min 7 W/m 8,4 km/h (2 Bft)
16.07.2015 21:38 25,2 C 21,7 C 69 % 0 lf 1014,1 hPa 0,0 l/m 0 min 0 min 7 W/m 12,6 km/h (3 Bft)
16.07.2015 21:40 25,2 C 22,2 C 69 % 0 lf 1014,2 hPa 0,0 l/m 0 min 0 min 5 W/m 8,4 km/h (2 Bft)
16.07.2015 21:42 25,1 C 22,2 C 69 % 0 lf 1014,3 hPa 0,0 l/m 0 min 0 min 5 W/m 8,4 km/h (2 Bft)
16.07.2015 21:44 25,1 C 22,2 C 69 % 0 lf 1014,3 hPa 0,0 l/m 0 min 0 min 5 W/m 10,5 km/h (2 Bft)
16.07.2015 21:46 25,1 C 22,2 C 69 % 0 lf 1014,4 hPa 0,0 l/m 0 min 0 min 2 W/m 12,6 km/h (3 Bft)
16.07.2015 21:48 25,1 C 22,2 C 69 % 0 lf 1014,4 hPa 0,0 l/m 0 min 0 min 0 W/m 10,5 km/h (2 Bft)
16.07.2015 21:50 25,0 C 22,2 C 69 % 0 lf 1014,4 hPa 0,0 l/m 0 min 0 min 0 W/m 12,6 km/h (3 Bft)
16.07.2015 21:52 24,9 C 22,2 C 69 % 0 lf 1014,5 hPa 0,0 l/m 0 min 0 min 0 W/m 14,6 km/h (3 Bft)
16.07.2015 21:54 24,9 C 22,2 C 70 % 0 lf 1014,5 hPa 0,0 l/m 0 min 0 min 0 W/m 10,5 km/h (2 Bft)
16.07.2015 21:56 24,9 C 22,2 C 70 % 0 lf 1014,5 hPa 0,0 l/m 0 min 0 min 0 W/m 6,3 km/h (2 Bft)
16.07.2015 21:58 24,8 C 21,7 C 70 % 0 lf 1014,6 hPa 0,0 l/m 0 min 0 min 0 W/m 8,4 km/h (2 Bft)
16.07.2015 22:00 24,8 C 21,7 C 70 % 0 lf 1014,6 hPa 0,0 l/m 0 min 0 min 0 W/m 6,3 km/h (2 Bft)
16.07.2015 22:02 24,8 C 21,7 C 70 % 0 lf 1014,7 hPa 0,0 l/m 0 min 0 min 0 W/m 8,4 km/h (2 Bft)
16.07.2015 22:04 24,7 C 21,7 C 70 % 0 lf 1014,7 hPa 0,0 l/m 0 min 0 min 0 W/m 8,4 km/h (2 Bft)
16.07.2015 22:06 24,7 C 21,7 C 70 % 0 lf 1014,7 hPa 0,0 l/m 0 min 0 min 0 W/m 8,4 km/h (2 Bft)
16.07.2015 22:08 24,7 C 21,7 C 70 % 0 lf 1014,7 hPa 0,0 l/m 0 min 0 min 0 W/m 6,3 km/h (2 Bft)
16.07.2015 22:10 24,6 C 21,7 C 70 % 0 lf 1014,8 hPa 0,0 l/m 0 min 0 min 0 W/m 6,3 km/h (2 Bft)
16.07.2015 22:12 24,6 C 21,7 C 70 % 0 lf 1014,7 hPa 0,0 l/m 0 min 0 min 0 W/m 8,4 km/h (2 Bft)
16.07.2015 22:14 24,6 C 21,7 C 70 % 0 lf 1014,7 hPa 0,0 l/m 0 min 0 min 0 W/m 8,4 km/h (2 Bft)
16.07.2015 22:16 24,5 C 22,2 C 71 % 0 lf 1014,9 hPa 0,0 l/m 0 min 0 min 0 W/m 6,3 km/h (2 Bft)
16.07.2015 22:18 24,5 C 22,2 C 71 % 0 lf 1014,9 hPa 0,0 l/m 0 min 0 min 0 W/m 6,3 km/h (2 Bft)
16.07.2015 22:20 24,4 C 22,2 C 71 % 0 lf 1014,9 hPa 0,0 l/m 0 min 0 min 0 W/m 6,3 km/h (2 Bft)
16.07.2015 22:22 24,4 C 22,2 C 71 % 0 lf 1014,8 hPa 0,0 l/m 0 min 0 min 0 W/m 6,3 km/h (2 Bft)
16.07.2015 22:24 24,4 C 22,2 C 71 % 0 lf 1014,8 hPa 0,0 l/m 0 min 0 min 0 W/m 6,3 km/h (2 Bft)
16.07.2015 22:26 24,4 C 22,2 C 71 % 0 lf 1014,9 hPa 0,0 l/m 0 min 0 min 0 W/m 6,3 km/h (2 Bft)
16.07.2015 22:28 24,3 C 22,2 C 72 % 0 lf 1014,9 hPa 0,0 l/m 0 min 0 min 0 W/m 6,3 km/h (2 Bft)
16.07.2015 22:30 24,3 C 22,2 C 72 % 0 lf 1014,8 hPa 0,0 l/m 0 min 0 min 0 W/m 6,3 km/h (2 Bft)
16.07.2015 22:32 24,2 C 21,7 C 72 % 0 lf 1014,8 hPa 0,0 l/m 0 min 0 min 0 W/m 4,2 km/h (1 Bft)
16.07.2015 22:34 24,2 C 21,7 C 72 % 0 lf 1014,7 hPa 0,0 l/m 0 min 0 min 0 W/m 2,1 km/h (1 Bft)
16.07.2015 22:36 24,2 C 21,7 C 72 % 0 lf 1014,6 hPa 0,0 l/m 0 min 0 min 0 W/m 4,2 km/h (1 Bft)
16.07.2015 22:38 24,2 C 21,7 C 72 % 0 lf 1014,5 hPa 0,0 l/m 0 min 0 min 0 W/m 6,3 km/h (2 Bft)
16.07.2015 22:40 24,2 C 21,7 C 72 % 0 lf 1014,4 hPa 0,0 l/m 0 min 0 min 0 W/m 6,3 km/h (2 Bft)
16.07.2015 22:42 24,1 C 21,1 C 72 % 0 lf 1014,2 hPa 0,0 l/m 0 min 0 min 0 W/m 8,4 km/h (2 Bft)
16.07.2015 22:44 24,1 C 21,1 C 73 % 0 lf 1014,1 hPa 0,0 l/m 0 min 0 min 0 W/m 4,2 km/h (1 Bft)
16.07.2015 22:46 24,1 C 21,1 C 73 % 0 lf 1014,0 hPa 0,0 l/m 0 min 0 min 0 W/m 10,5 km/h (2 Bft)
16.07.2015 22:48 24,1 C 21,1 C 73 % 0 lf 1013,9 hPa 0,0 l/m 0 min 0 min 0 W/m 12,6 km/h (3 Bft)
16.07.2015 22:50 24,0 C 21,1 C 73 % 0 lf 1013,9 hPa 0,0 l/m 0 min 0 min 0 W/m 14,6 km/h (3 Bft)
16.07.2015 22:52 23,9 C 21,7 C 72 % 0 lf 1013,8 hPa 0,0 l/m 0 min 0 min 0 W/m 23,0 km/h (4 Bft)
16.07.2015 22:54 23,9 C 21,7 C 72 % 0 lf 1013,6 hPa 0,0 l/m 0 min 0 min 0 W/m 16,7 km/h (3 Bft)
16.07.2015 22:56 23,9 C 21,7 C 72 % 0 lf 1013,6 hPa 0,0 l/m 0 min 0 min 0 W/m 20,9 km/h (4 Bft)
16.07.2015 22:58 23,9 C 21,7 C 72 % 0 lf 1013,4 hPa 0,0 l/m 0 min 0 min 0 W/m 29,3 km/h (5 Bft)
16.07.2015 23:00 23,9 C 21,7 C 72 % 0 lf 1013,3 hPa 0,0 l/m 0 min 0 min 0 W/m 23,0 km/h (4 Bft)
16.07.2015 23:02 23,8 C 21,7 C 72 % 0 lf 1013,3 hPa 0,0 l/m 0 min 2 min 0 W/m 25,1 km/h (4 Bft)
16.07.2015 23:04 23,8 C 21,7 C 72 % 0 lf 1013,2 hPa 0,0 l/m 0 min 2 min 0 W/m 23,0 km/h (4 Bft)
16.07.2015 23:06 23,8 C 21,7 C 72 % 0 lf 1013,0 hPa 0,0 l/m 0 min 2 min 0 W/m 23,0 km/h (4 Bft)
16.07.2015 23:08 23,8 C 21,7 C 72 % 0 lf 1013,0 hPa 0,0 l/m 0 min 0 min 0 W/m 23,0 km/h (4 Bft)
16.07.2015 23:10 23,8 C 21,7 C 72 % 0 lf 1013,1 hPa 0,0 l/m 0 min 0 min 0 W/m 31,4 km/h (5 Bft)
16.07.2015 23:12 23,8 C 21,7 C 72 % 0 lf 1013,1 hPa 0,0 l/m 0 min 0 min 0 W/m 20,9 km/h (4 Bft)
16.07.2015 23:14 23,8 C 21,7 C 72 % 0 lf 1013,1 hPa 0,0 l/m 0 min 0 min 0 W/m 23,0 km/h (4 Bft)
16.07.2015 23:16 23,8 C 21,7 C 72 % 0 lf 1013,1 hPa 0,0 l/m 0 min 0 min 0 W/m 16,7 km/h (3 Bft)
16.07.2015 23:18 23,7 C 21,7 C 72 % 0 lf 1013,1 hPa 0,0 l/m 0 min 0 min 0 W/m 18,8 km/h (3 Bft)
16.07.2015 23:20 23,7 C 21,1 C 72 % 0 lf 1013,0 hPa 0,0 l/m 0 min 0 min 0 W/m 23,0 km/h (4 Bft)
16.07.2015 23:22 23,7 C 21,7 C 72 % 0 lf 1013,0 hPa 0,0 l/m 0 min 0 min 0 W/m 18,8 km/h (3 Bft)
16.07.2015 23:24 23,7 C 21,7 C 73 % 0 lf 1013,1 hPa 0,0 l/m 0 min 0 min 0 W/m 14,6 km/h (3 Bft)
16.07.2015 23:26 23,6 C 21,1 C 73 % 0 lf 1013,2 hPa 0,0 l/m 0 min 0 min 0 W/m 14,6 km/h (3 Bft)
16.07.2015 23:28 23,6 C 21,1 C 73 % 0 lf 1013,3 hPa 0,0 l/m 0 min 0 min 0 W/m 20,9 km/h (4 Bft)
16.07.2015 23:30 23,6 C 21,7 C 73 % 0 lf 1013,4 hPa 0,0 l/m 0 min 0 min 0 W/m 20,9 km/h (4 Bft)
16.07.2015 23:32 23,6 C 21,1 C 73 % 0 lf 1013,5 hPa 0,0 l/m 0 min 0 min 0 W/m 10,5 km/h (2 Bft)
16.07.2015 23:34 23,5 C 21,7 C 73 % 0 lf 1013,6 hPa 0,0 l/m 0 min 0 min 0 W/m 16,7 km/h (3 Bft)
16.07.2015 23:36 23,5 C 21,7 C 73 % 0 lf 1013,6 hPa 0,0 l/m 0 min 0 min 0 W/m 12,6 km/h (3 Bft)
16.07.2015 23:38 23,5 C 21,7 C 73 % 0 lf 1013,7 hPa 0,0 l/m 0 min 0 min 0 W/m 14,6 km/h (3 Bft)
16.07.2015 23:40 23,4 C 21,1 C 73 % 0 lf 1013,6 hPa 0,0 l/m 0 min 0 min 0 W/m 14,6 km/h (3 Bft)
16.07.2015 23:42 23,4 C 21,1 C 73 % 0 lf 1013,7 hPa 0,0 l/m 0 min 0 min 0 W/m 14,6 km/h (3 Bft)
16.07.2015 23:44 23,4 C 21,1 C 73 % 0 lf 1013,7 hPa 0,0 l/m 0 min 0 min 0 W/m 14,6 km/h (3 Bft)
16.07.2015 23:46 23,4 C 21,1 C 73 % 0 lf 1013,7 hPa 0,0 l/m 0 min 0 min 0 W/m 14,6 km/h (3 Bft)
16.07.2015 23:48 23,4 C 21,1 C 73 % 0 lf 1013,8 hPa 0,0 l/m 0 min 0 min 0 W/m 10,5 km/h (2 Bft)
16.07.2015 23:50 23,4 C 21,1 C 73 % 0 lf 1013,8 hPa 0,0 l/m 0 min 0 min 0 W/m 10,5 km/h (2 Bft)
16.07.2015 23:52 23,3 C 21,1 C 73 % 0 lf 1013,8 hPa 0,0 l/m 0 min 0 min 0 W/m 10,5 km/h (2 Bft)
16.07.2015 23:54 23,3 C 21,1 C 74 % 0 lf 1013,9 hPa 0,0 l/m 0 min 0 min 0 W/m 8,4 km/h (2 Bft)
16.07.2015 23:56 23,3 C 21,1 C 74 % 0 lf 1013,9 hPa 0,0 l/m 0 min 0 min 0 W/m 6,3 km/h (2 Bft)
16.07.2015 23:58 23,3 C 21,1 C 74 % 0 lf 1013,8 hPa 0,0 l/m 0 min 0 min 0 W/m 8,4 km/h (2 Bft)
_ Min-Zeit 07:42 02:40 17:02 00:00 23:06 - - - - 00:00
Minimum _ 16,4 C 15,0 C 56 % 0 lf 1013,0 hPa - - - - 0,0 km/h (0 Bft)
_ Max-Zeit 17:02 16:30 07:34 02:34 09:48 00:00 10:54 00:08 13:30 23:10
Maximum _ 28,7 C 29,4 C 97 % 15 lf 1019,6 hPa 0,0 l/m 2 min 2 min 956 W/m 31,4 km/h
O (5 Bft)
Durchschnitt _ 21,9 C 20,6 C 79 % 3 lf 1017,2 hPa #0,0 l/m #9:17 h #8 min. 375 W/m 8,8 km/h (2 Bft)
© 2015 W. Hausmann